PWSweather.com
Personal Weather Stations
Station Observations

East RockawayEast Rockaway, NY 11518

Lat: 40.63037, Lon: -73.67318699999998

Elevation: 14.1

Station Type: Ambient WS-2902

https://dashboard.ambientweather.net/devices/public/29e02c50ac46319a88a2fbe1b0953c9e

Latest ConditionsUpdated 11:32:00 AM EDT Saturday, Mar 23, 2019
Currently Today's Max Today's Min Today's Average
Temperature 39.6°F4.2°C 40.6°F4.8°C 34.7°F1.5°C 36.6°F2.6°C
Dew Point 23.9°F-4.5°C 30.2°F-1.0°C 22.3°F-5.4°C 24.8°F-4.0°C
Winds 7.6 mph WNW12.2 kmh WNW 15.4 mph -24.8 kmh - - 7.1 mph 11.4 kmh
Wind Gusts 9.2 mph14.8 kmh 21.7 mph34.9 kmh - -
Humidity 53% 68% 53% 62%
Pressure 29.83 in1010.2 mb 29.83 in1010.2 mb 29.52 in999.7 mb -
Hour Temp Dew Point Humidity Winds Wind Gusts Pressure Precip Precip Rate Daily Precip Total
11:32 AM 39.6°F4.2°C 23.9°F-4.5°C 53% 7.6 mph WNW12.2 kmh WNW 9.2 mph14.8 kmh 29.83 in1010.2 mb 0.00 in0.0 mm 0.00 in0.0 mm 0.00 in0.0 mm
11:31 AM 39.4°F4.1°C 23.7°F-4.6°C 53% 9.2 mph W14.8 kmh W 14.8 mph23.8 kmh 29.83 in1010.2 mb 0.00 in0.0 mm 0.00 in0.0 mm 0.00 in0.0 mm
11:30 AM 39.4°F4.1°C 23.7°F-4.6°C 53% 12.1 mph WNW19.5 kmh WNW 15.9 mph25.6 kmh 29.83 in1010.2 mb 0.00 in0.0 mm 0.00 in0.0 mm 0.00 in0.0 mm
11:29 AM 39.6°F4.2°C 23.9°F-4.5°C 53% 9.6 mph NW15.4 kmh NW 13.6 mph21.9 kmh 29.83 in1010.2 mb 0.00 in0.0 mm 0.00 in0.0 mm 0.00 in0.0 mm
11:28 AM 39.6°F4.2°C 23.9°F-4.5°C 53% 8.5 mph NW13.7 kmh NW 10.3 mph16.6 kmh 29.83 in1010.2 mb 0.00 in0.0 mm 0.00 in0.0 mm 0.00 in0.0 mm
11:27 AM 39.4°F4.1°C 24.2°F-4.3°C 54% 5.6 mph W9.0 kmh W 6.9 mph11.1 kmh 29.83 in1010.2 mb 0.00 in0.0 mm 0.00 in0.0 mm 0.00 in0.0 mm
11:26 AM 39.4°F4.1°C 24.2°F-4.3°C 54% 5.4 mph W8.7 kmh W 6.9 mph11.1 kmh 29.83 in1010.2 mb 0.00 in0.0 mm 0.00 in0.0 mm 0.00 in0.0 mm
11:25 AM 39.4°F4.1°C 24.2°F-4.3°C 54% 7.8 mph NW12.6 kmh NW 10.3 mph16.6 kmh 29.83 in1010.2 mb 0.00 in0.0 mm 0.00 in0.0 mm 0.00 in0.0 mm
11:24 AM 39.4°F4.1°C 24.2°F-4.3°C 54% 6.9 mph NW11.1 kmh NW 10.3 mph16.6 kmh 29.83 in1010.2 mb 0.00 in0.0 mm 0.00 in0.0 mm 0.00 in0.0 mm
11:23 AM 39.4°F4.1°C 23.7°F-4.6°C 53% 12.3 mph WNW19.8 kmh WNW 17.2 mph27.7 kmh 29.83 in1010.2 mb 0.00 in0.0 mm 0.00 in0.0 mm 0.00 in0.0 mm
11:22 AM 39.4°F4.1°C 24.6°F-4.1°C 55% 4.0 mph NW6.4 kmh NW 6.9 mph11.1 kmh 29.83 in1010.2 mb 0.00 in0.0 mm 0.00 in0.0 mm 0.00 in0.0 mm
11:21 AM 39.4°F4.1°C 24.2°F-4.3°C 54% 6.7 mph NW10.8 kmh NW 10.3 mph16.6 kmh 29.83 in1010.2 mb 0.00 in0.0 mm 0.00 in0.0 mm 0.00 in0.0 mm
11:20 AM 39.4°F4.1°C 24.2°F-4.3°C 54% 4.7 mph N7.6 kmh N 8.1 mph13.0 kmh 29.83 in1010.2 mb 0.00 in0.0 mm 0.00 in0.0 mm 0.00 in0.0 mm
11:19 AM 39.4°F4.1°C 24.2°F-4.3°C 54% 10.5 mph W16.9 kmh W 13.6 mph21.9 kmh 29.83 in1010.2 mb 0.00 in0.0 mm 0.00 in0.0 mm 0.00 in0.0 mm
11:18 AM 39.4°F4.1°C 24.6°F-4.1°C 55% 4.7 mph WNW7.6 kmh WNW 6.9 mph11.1 kmh 29.83 in1010.2 mb 0.00 in0.0 mm 0.00 in0.0 mm 0.00 in0.0 mm
11:17 AM 39.4°F4.1°C 24.2°F-4.3°C 54% 8.9 mph SW14.3 kmh SW 11.4 mph18.3 kmh 29.83 in1010.2 mb 0.00 in0.0 mm 0.00 in0.0 mm 0.00 in0.0 mm
11:16 AM 39.2°F4.0°C 24.0°F-4.4°C 54% 5.6 mph WSW9.0 kmh WSW 6.9 mph11.1 kmh 29.83 in1010.2 mb 0.00 in0.0 mm 0.00 in0.0 mm 0.00 in0.0 mm
11:15 AM 39.2°F4.0°C 24.4°F-4.2°C 55% 3.6 mph ESE5.8 kmh ESE 4.5 mph7.2 kmh 29.82 in1009.8 mb 0.00 in0.0 mm 0.00 in0.0 mm 0.00 in0.0 mm
11:14 AM 39.2°F4.0°C 24.4°F-4.2°C 55% 5.8 mph NNW9.3 kmh NNW 8.1 mph13.0 kmh 29.82 in1009.8 mb 0.00 in0.0 mm 0.00 in0.0 mm 0.00 in0.0 mm
11:13 AM 39.2°F4.0°C 24.4°F-4.2°C 55% 5.1 mph N8.2 kmh N 6.9 mph11.1 kmh 29.83 in1010.2 mb 0.00 in0.0 mm 0.00 in0.0 mm 0.00 in0.0 mm
11:12 AM 39.2°F4.0°C 24.4°F-4.2°C 55% 7.4 mph WNW11.9 kmh WNW 9.2 mph14.8 kmh 29.83 in1010.2 mb 0.00 in0.0 mm 0.00 in0.0 mm 0.00 in0.0 mm
11:11 AM 39.0°F3.9°C 24.2°F-4.3°C 55% 2.9 mph SE4.7 kmh SE 3.4 mph5.5 kmh 29.82 in1009.8 mb 0.00 in0.0 mm 0.00 in0.0 mm 0.00 in0.0 mm
11:10 AM 38.8°F3.8°C 24.0°F-4.4°C 55% 6.5 mph NW10.5 kmh NW 9.2 mph14.8 kmh 29.82 in1009.8 mb 0.00 in0.0 mm 0.00 in0.0 mm 0.00 in0.0 mm
11:09 AM 38.8°F3.8°C 24.0°F-4.4°C 55% 4.7 mph NW7.6 kmh NW 6.9 mph11.1 kmh 29.83 in1010.2 mb 0.00 in0.0 mm 0.00 in0.0 mm 0.00 in0.0 mm
11:08 AM 38.8°F3.8°C 24.0°F-4.4°C 55% 7.8 mph WNW12.6 kmh WNW 10.3 mph16.6 kmh 29.83 in1010.2 mb 0.00 in0.0 mm 0.00 in0.0 mm 0.00 in0.0 mm
11:07 AM 39.0°F3.9°C 24.2°F-4.3°C 55% 8.5 mph WSW13.7 kmh WSW 11.4 mph18.3 kmh 29.83 in1010.2 mb 0.00 in0.0 mm 0.00 in0.0 mm 0.00 in0.0 mm
11:06 AM 39.0°F3.9°C 24.2°F-4.3°C 55% 7.6 mph S12.2 kmh S 9.2 mph14.8 kmh 29.82 in1009.8 mb 0.00 in0.0 mm 0.00 in0.0 mm 0.00 in0.0 mm
11:05 AM 38.8°F3.8°C 24.0°F-4.4°C 55% 4.3 mph S6.9 kmh S 6.9 mph11.1 kmh 29.83 in1010.2 mb 0.00 in0.0 mm 0.00 in0.0 mm 0.00 in0.0 mm
11:04 AM 38.7°F3.7°C 23.9°F-4.5°C 55% 6.5 mph WSW10.5 kmh WSW 10.3 mph16.6 kmh 29.83 in1010.2 mb 0.00 in0.0 mm 0.00 in0.0 mm 0.00 in0.0 mm
11:03 AM 38.7°F3.7°C 23.9°F-4.5°C 55% 4.5 mph WNW7.2 kmh WNW 5.8 mph9.3 kmh 29.83 in1010.2 mb 0.00 in0.0 mm 0.00 in0.0 mm 0.00 in0.0 mm
11:02 AM 38.7°F3.7°C 24.4°F-4.2°C 56% 5.8 mph NW9.3 kmh NW 8.1 mph13.0 kmh 29.83 in1010.2 mb 0.00 in0.0 mm 0.00 in0.0 mm 0.00 in0.0 mm
11:01 AM 38.7°F3.7°C 23.9°F-4.5°C 55% 3.4 mph NW5.5 kmh NW 6.9 mph11.1 kmh 29.83 in1010.2 mb 0.00 in0.0 mm 0.00 in0.0 mm 0.00 in0.0 mm
11:00 AM 38.7°F3.7°C 23.9°F-4.5°C 55% 8.1 mph N13.0 kmh N 12.5 mph20.1 kmh 29.83 in1010.2 mb 0.00 in0.0 mm 0.00 in0.0 mm 0.00 in0.0 mm
10:59 AM 38.8°F3.8°C 24.0°F-4.4°C 55% 10.5 mph W16.9 kmh W 17.2 mph27.7 kmh 29.83 in1010.2 mb 0.00 in0.0 mm 0.00 in0.0 mm 0.00 in0.0 mm
10:58 AM 38.8°F3.8°C 24.5°F-4.2°C 56% 2.5 mph SE4.0 kmh SE 6.9 mph11.1 kmh 29.82 in1009.8 mb 0.00 in0.0 mm 0.00 in0.0 mm 0.00 in0.0 mm
10:57 AM 38.7°F3.7°C 23.9°F-4.5°C 55% 8.1 mph NW13.0 kmh NW 11.4 mph18.3 kmh 29.82 in1009.8 mb 0.00 in0.0 mm 0.00 in0.0 mm 0.00 in0.0 mm
10:56 AM 38.7°F3.7°C 23.9°F-4.5°C 55% 5.8 mph NW9.3 kmh NW 8.1 mph13.0 kmh 29.82 in1009.8 mb 0.00 in0.0 mm 0.00 in0.0 mm 0.00 in0.0 mm
10:55 AM 38.7°F3.7°C 24.4°F-4.2°C 56% 6.9 mph NW11.1 kmh NW 10.3 mph16.6 kmh 29.83 in1010.2 mb 0.00 in0.0 mm 0.00 in0.0 mm 0.00 in0.0 mm
10:54 AM 38.7°F3.7°C 23.9°F-4.5°C 55% 7.4 mph NW11.9 kmh NW 9.2 mph14.8 kmh 29.82 in1009.8 mb 0.00 in0.0 mm 0.00 in0.0 mm 0.00 in0.0 mm
10:53 AM 38.7°F3.7°C 24.4°F-4.2°C 56% 4.7 mph E7.6 kmh E 6.9 mph11.1 kmh 29.82 in1009.8 mb 0.00 in0.0 mm 0.00 in0.0 mm 0.00 in0.0 mm
10:52 AM 38.8°F3.8°C 24.5°F-4.2°C 56% 8.1 mph NW13.0 kmh NW 10.3 mph16.6 kmh 29.82 in1009.8 mb 0.00 in0.0 mm 0.00 in0.0 mm 0.00 in0.0 mm
10:51 AM 39.0°F3.9°C 24.7°F-4.1°C 56% 10.1 mph NW16.3 kmh NW 13.6 mph21.9 kmh 29.81 in1009.5 mb 0.00 in0.0 mm 0.00 in0.0 mm 0.00 in0.0 mm
10:50 AM 38.8°F3.8°C 24.5°F-4.2°C 56% 9.2 mph NW14.8 kmh NW 12.5 mph20.1 kmh 29.82 in1009.8 mb 0.00 in0.0 mm 0.00 in0.0 mm 0.00 in0.0 mm
10:49 AM 38.7°F3.7°C 24.8°F-4.0°C 57% 3.6 mph W5.8 kmh W 4.5 mph7.2 kmh 29.82 in1009.8 mb 0.00 in0.0 mm 0.00 in0.0 mm 0.00 in0.0 mm
10:48 AM 38.7°F3.7°C 24.8°F-4.0°C 57% 3.8 mph W6.1 kmh W 4.5 mph7.2 kmh 29.82 in1009.8 mb 0.00 in0.0 mm 0.00 in0.0 mm 0.00 in0.0 mm
10:47 AM 38.7°F3.7°C 24.4°F-4.2°C 56% 5.1 mph WNW8.2 kmh WNW 6.9 mph11.1 kmh 29.81 in1009.5 mb 0.00 in0.0 mm 0.00 in0.0 mm 0.00 in0.0 mm
10:46 AM 38.7°F3.7°C 24.4°F-4.2°C 56% 5.8 mph N9.3 kmh N 6.9 mph11.1 kmh 29.81 in1009.5 mb 0.00 in0.0 mm 0.00 in0.0 mm 0.00 in0.0 mm
10:45 AM 38.8°F3.8°C 24.5°F-4.2°C 56% 8.9 mph NNW14.3 kmh NNW 11.4 mph18.3 kmh 29.82 in1009.8 mb 0.00 in0.0 mm 0.00 in0.0 mm 0.00 in0.0 mm
10:44 AM 38.8°F3.8°C 24.5°F-4.2°C 56% 5.6 mph WSW9.0 kmh WSW 8.1 mph13.0 kmh 29.81 in1009.5 mb 0.00 in0.0 mm 0.00 in0.0 mm 0.00 in0.0 mm
10:43 AM 38.8°F3.8°C 24.5°F-4.2°C 56% 7.6 mph W12.2 kmh W 11.4 mph18.3 kmh 29.81 in1009.5 mb 0.00 in0.0 mm 0.00 in0.0 mm 0.00 in0.0 mm
10:42 AM 38.8°F3.8°C 24.5°F-4.2°C 56% 2.7 mph NW4.3 kmh NW 4.5 mph7.2 kmh 29.81 in1009.5 mb 0.00 in0.0 mm 0.00 in0.0 mm 0.00 in0.0 mm
10:41 AM 38.7°F3.7°C 24.8°F-4.0°C 57% 6.7 mph NW10.8 kmh NW 9.2 mph14.8 kmh 29.81 in1009.5 mb 0.00 in0.0 mm 0.00 in0.0 mm 0.00 in0.0 mm
10:40 AM 38.7°F3.7°C 24.4°F-4.2°C 56% 4.0 mph N6.4 kmh N 5.8 mph9.3 kmh 29.81 in1009.5 mb 0.00 in0.0 mm 0.00 in0.0 mm 0.00 in0.0 mm
10:39 AM 38.5°F3.6°C 24.6°F-4.1°C 57% 2.7 mph SW4.3 kmh SW 3.4 mph5.5 kmh 29.81 in1009.5 mb 0.00 in0.0 mm 0.00 in0.0 mm 0.00 in0.0 mm
10:38 AM 38.5°F3.6°C 24.6°F-4.1°C 57% 3.8 mph WSW6.1 kmh WSW 5.8 mph9.3 kmh 29.81 in1009.5 mb 0.00 in0.0 mm 0.00 in0.0 mm 0.00 in0.0 mm
10:37 AM 38.5°F3.6°C 24.6°F-4.1°C 57% 4.5 mph WNW7.2 kmh WNW 6.9 mph11.1 kmh 29.81 in1009.5 mb 0.00 in0.0 mm 0.00 in0.0 mm 0.00 in0.0 mm
10:36 AM 38.3°F3.5°C 24.4°F-4.2°C 57% 2.2 mph NE3.5 kmh NE 3.4 mph5.5 kmh 29.81 in1009.5 mb 0.00 in0.0 mm 0.00 in0.0 mm 0.00 in0.0 mm
10:35 AM 38.3°F3.5°C 24.4°F-4.2°C 57% 4.3 mph W6.9 kmh W 5.8 mph9.3 kmh 29.81 in1009.5 mb 0.00 in0.0 mm 0.00 in0.0 mm 0.00 in0.0 mm
10:34 AM 38.3°F3.5°C 24.4°F-4.2°C 57% 4.5 mph W7.2 kmh W 6.9 mph11.1 kmh 29.81 in1009.5 mb 0.00 in0.0 mm 0.00 in0.0 mm 0.00 in0.0 mm
10:33 AM 37.9°F3.3°C 24.0°F-4.4°C 57% 7.8 mph W12.6 kmh W 12.5 mph20.1 kmh 29.81 in1009.5 mb 0.00 in0.0 mm 0.00 in0.0 mm 0.00 in0.0 mm
10:32 AM 37.9°F3.3°C 24.0°F-4.4°C 57% 6.9 mph NW11.1 kmh NW 8.1 mph13.0 kmh 29.81 in1009.5 mb 0.00 in0.0 mm 0.00 in0.0 mm 0.00 in0.0 mm
10:31 AM 37.9°F3.3°C 24.0°F-4.4°C 57% 9.8 mph NW15.8 kmh NW 13.6 mph21.9 kmh 29.80 in1009.1 mb 0.00 in0.0 mm 0.00 in0.0 mm 0.00 in0.0 mm
10:30 AM 38.1°F3.4°C 24.2°F-4.3°C 57% 6.9 mph WNW11.1 kmh WNW 9.2 mph14.8 kmh 29.81 in1009.5 mb 0.00 in0.0 mm 0.00 in0.0 mm 0.00 in0.0 mm
10:29 AM 38.1°F3.4°C 24.2°F-4.3°C 57% 10.5 mph W16.9 kmh W 13.6 mph21.9 kmh 29.81 in1009.5 mb 0.00 in0.0 mm 0.00 in0.0 mm 0.00 in0.0 mm
10:28 AM 38.1°F3.4°C 24.2°F-4.3°C 57% 9.2 mph NW14.8 kmh NW 12.5 mph20.1 kmh 29.81 in1009.5 mb 0.00 in0.0 mm 0.00 in0.0 mm 0.00 in0.0 mm
10:27 AM 38.1°F3.4°C 24.2°F-4.3°C 57% 8.5 mph NW13.7 kmh NW 9.2 mph14.8 kmh 29.81 in1009.5 mb 0.00 in0.0 mm 0.00 in0.0 mm 0.00 in0.0 mm
10:26 AM 38.1°F3.4°C 24.2°F-4.3°C 57% 6.5 mph N10.5 kmh N 10.3 mph16.6 kmh 29.81 in1009.5 mb 0.00 in0.0 mm 0.00 in0.0 mm 0.00 in0.0 mm
10:25 AM 38.1°F3.4°C 24.2°F-4.3°C 57% 6.0 mph E9.7 kmh E 8.1 mph13.0 kmh 29.80 in1009.1 mb 0.00 in0.0 mm 0.00 in0.0 mm 0.00 in0.0 mm
10:24 AM 38.1°F3.4°C 24.2°F-4.3°C 57% 6.3 mph WNW10.1 kmh WNW 8.1 mph13.0 kmh 29.80 in1009.1 mb 0.00 in0.0 mm 0.00 in0.0 mm 0.00 in0.0 mm
10:23 AM 38.1°F3.4°C 24.2°F-4.3°C 57% 4.9 mph NW7.9 kmh NW 5.8 mph9.3 kmh 29.81 in1009.5 mb 0.00 in0.0 mm 0.00 in0.0 mm 0.00 in0.0 mm
10:22 AM 38.1°F3.4°C 24.2°F-4.3°C 57% 8.9 mph NW14.3 kmh NW 11.4 mph18.3 kmh 29.81 in1009.5 mb 0.00 in0.0 mm 0.00 in0.0 mm 0.00 in0.0 mm
10:21 AM 37.9°F3.3°C 24.0°F-4.4°C 57% 11.2 mph NNW18.0 kmh NNW 13.6 mph21.9 kmh 29.80 in1009.1 mb 0.00 in0.0 mm 0.00 in0.0 mm 0.00 in0.0 mm
10:20 AM 37.9°F3.3°C 24.0°F-4.4°C 57% 8.1 mph NW13.0 kmh NW 9.2 mph14.8 kmh 29.80 in1009.1 mb 0.00 in0.0 mm 0.00 in0.0 mm 0.00 in0.0 mm
10:19 AM 37.9°F3.3°C 24.0°F-4.4°C 57% 7.6 mph NW12.2 kmh NW 12.5 mph20.1 kmh 29.80 in1009.1 mb 0.00 in0.0 mm 0.00 in0.0 mm 0.00 in0.0 mm
10:18 AM 38.1°F3.4°C 24.2°F-4.3°C 57% 7.4 mph W11.9 kmh W 11.4 mph18.3 kmh 29.81 in1009.5 mb 0.00 in0.0 mm 0.00 in0.0 mm 0.00 in0.0 mm
10:17 AM 38.1°F3.4°C 24.2°F-4.3°C 57% 9.6 mph WNW15.4 kmh WNW 13.6 mph21.9 kmh 29.80 in1009.1 mb 0.00 in0.0 mm 0.00 in0.0 mm 0.00 in0.0 mm
10:16 AM 37.9°F3.3°C 24.0°F-4.4°C 57% 2.9 mph NW4.7 kmh NW 5.8 mph9.3 kmh 29.80 in1009.1 mb 0.00 in0.0 mm 0.00 in0.0 mm 0.00 in0.0 mm
10:15 AM 37.9°F3.3°C 24.0°F-4.4°C 57% 1.3 mph SE2.1 kmh SE 2.2 mph3.5 kmh 29.80 in1009.1 mb 0.00 in0.0 mm 0.00 in0.0 mm 0.00 in0.0 mm
10:14 AM 37.9°F3.3°C 24.0°F-4.4°C 57% 3.1 mph NNW5.0 kmh NNW 3.4 mph5.5 kmh 29.80 in1009.1 mb 0.00 in0.0 mm 0.00 in0.0 mm 0.00 in0.0 mm
10:13 AM 37.9°F3.3°C 24.0°F-4.4°C 57% 3.8 mph NW6.1 kmh NW 4.5 mph7.2 kmh 29.80 in1009.1 mb 0.00 in0.0 mm 0.00 in0.0 mm 0.00 in0.0 mm
10:12 AM 37.8°F3.2°C 24.0°F-4.4°C 57% 4.0 mph NNW6.4 kmh NNW 5.8 mph9.3 kmh 29.79 in1008.8 mb 0.00 in0.0 mm 0.00 in0.0 mm 0.00 in0.0 mm
10:11 AM 37.8°F3.2°C 24.4°F-4.2°C 58% 3.6 mph WNW5.8 kmh WNW 5.8 mph9.3 kmh 29.80 in1009.1 mb 0.00 in0.0 mm 0.00 in0.0 mm 0.00 in0.0 mm
10:10 AM 37.8°F3.2°C 24.4°F-4.2°C 58% 3.6 mph NW5.8 kmh NW 5.8 mph9.3 kmh 29.81 in1009.5 mb 0.00 in0.0 mm 0.00 in0.0 mm 0.00 in0.0 mm
10:09 AM 37.6°F3.1°C 23.8°F-4.6°C 57% 3.4 mph W5.5 kmh W 4.5 mph7.2 kmh 29.80 in1009.1 mb 0.00 in0.0 mm 0.00 in0.0 mm 0.00 in0.0 mm
10:08 AM 37.6°F3.1°C 23.8°F-4.6°C 57% 2.5 mph W4.0 kmh W 3.4 mph5.5 kmh 29.80 in1009.1 mb 0.00 in0.0 mm 0.00 in0.0 mm 0.00 in0.0 mm
10:07 AM 37.6°F3.1°C 24.2°F-4.3°C 58% 3.8 mph NW6.1 kmh NW 4.5 mph7.2 kmh 29.80 in1009.1 mb 0.00 in0.0 mm 0.00 in0.0 mm 0.00 in0.0 mm
10:06 AM 37.6°F3.1°C 24.2°F-4.3°C 58% 3.6 mph NW5.8 kmh NW 4.5 mph7.2 kmh 29.80 in1009.1 mb 0.00 in0.0 mm 0.00 in0.0 mm 0.00 in0.0 mm
10:05 AM 37.6°F3.1°C 23.8°F-4.6°C 57% 6.0 mph NW9.7 kmh NW 8.1 mph13.0 kmh 29.79 in1008.8 mb 0.00 in0.0 mm 0.00 in0.0 mm 0.00 in0.0 mm
10:04 AM 37.6°F3.1°C 24.2°F-4.3°C 58% 5.8 mph WNW9.3 kmh WNW 11.4 mph18.3 kmh 29.79 in1008.8 mb 0.00 in0.0 mm 0.00 in0.0 mm 0.00 in0.0 mm
10:03 AM 37.4°F3.0°C 24.0°F-4.4°C 58% 7.4 mph NNE11.9 kmh NNE 9.2 mph14.8 kmh 29.80 in1009.1 mb 0.00 in0.0 mm 0.00 in0.0 mm 0.00 in0.0 mm
10:02 AM 37.4°F3.0°C 24.0°F-4.4°C 58% 6.5 mph WNW10.5 kmh WNW 8.1 mph13.0 kmh 29.79 in1008.8 mb 0.00 in0.0 mm 0.00 in0.0 mm 0.00 in0.0 mm
10:01 AM 37.4°F3.0°C 24.0°F-4.4°C 58% 3.1 mph N5.0 kmh N 5.8 mph9.3 kmh 29.80 in1009.1 mb 0.00 in0.0 mm 0.00 in0.0 mm 0.00 in0.0 mm
10:00 AM 37.4°F3.0°C 24.0°F-4.4°C 58% 9.2 mph WNW14.8 kmh WNW 14.8 mph23.8 kmh 29.79 in1008.8 mb 0.00 in0.0 mm 0.00 in0.0 mm 0.00 in0.0 mm
09:59 AM 37.2°F2.9°C 23.8°F-4.6°C 58% 9.2 mph WNW14.8 kmh WNW 13.6 mph21.9 kmh 29.79 in1008.8 mb 0.00 in0.0 mm 0.00 in0.0 mm 0.00 in0.0 mm
09:58 AM 37.2°F2.9°C 23.8°F-4.6°C 58% 12.5 mph WNW20.1 kmh WNW 14.8 mph23.8 kmh 29.79 in1008.8 mb 0.00 in0.0 mm 0.00 in0.0 mm 0.00 in0.0 mm
09:57 AM 37.2°F2.9°C 23.8°F-4.6°C 58% 5.4 mph NW8.7 kmh NW 8.1 mph13.0 kmh 29.79 in1008.8 mb 0.00 in0.0 mm 0.00 in0.0 mm 0.00 in0.0 mm
09:56 AM 37.2°F2.9°C 23.8°F-4.6°C 58% 6.9 mph NW11.1 kmh NW 9.2 mph14.8 kmh 29.78 in1008.5 mb 0.00 in0.0 mm 0.00 in0.0 mm 0.00 in0.0 mm
09:55 AM 37.2°F2.9°C 23.8°F-4.6°C 58% 8.1 mph WNW13.0 kmh WNW 10.3 mph16.6 kmh 29.79 in1008.8 mb 0.00 in0.0 mm 0.00 in0.0 mm 0.00 in0.0 mm
09:54 AM 37.2°F2.9°C 23.8°F-4.6°C 58% 8.1 mph WNW13.0 kmh WNW 13.6 mph21.9 kmh 29.79 in1008.8 mb 0.00 in0.0 mm 0.00 in0.0 mm 0.00 in0.0 mm
09:53 AM 37.2°F2.9°C 24.2°F-4.3°C 59% 4.5 mph WNW7.2 kmh WNW 8.1 mph13.0 kmh 29.79 in1008.8 mb 0.00 in0.0 mm 0.00 in0.0 mm 0.00 in0.0 mm
09:52 AM 37.2°F2.9°C 24.2°F-4.3°C 59% 12.3 mph NW19.8 kmh NW 17.2 mph27.7 kmh 29.78 in1008.5 mb 0.00 in0.0 mm 0.00 in0.0 mm 0.00 in0.0 mm
09:51 AM 37.2°F2.9°C 24.2°F-4.3°C 59% 6.9 mph WSW11.1 kmh WSW 9.2 mph14.8 kmh 29.78 in1008.5 mb 0.00 in0.0 mm 0.00 in0.0 mm 0.00 in0.0 mm
09:50 AM 37.2°F2.9°C 24.6°F-4.1°C 60% 3.1 mph NW5.0 kmh NW 5.8 mph9.3 kmh 29.78 in1008.5 mb 0.00 in0.0 mm 0.00 in0.0 mm 0.00 in0.0 mm
09:49 AM 37.2°F2.9°C 24.2°F-4.3°C 59% 7.4 mph NW11.9 kmh NW 8.1 mph13.0 kmh 29.79 in1008.8 mb 0.00 in0.0 mm 0.00 in0.0 mm 0.00 in0.0 mm
09:48 AM 37.2°F2.9°C 24.6°F-4.1°C 60% 7.2 mph NW11.6 kmh NW 9.2 mph14.8 kmh 29.78 in1008.5 mb 0.00 in0.0 mm 0.00 in0.0 mm 0.00 in0.0 mm
09:47 AM 37.0°F2.8°C 24.4°F-4.2°C 60% 4.9 mph W7.9 kmh W 6.9 mph11.1 kmh 29.78 in1008.5 mb 0.00 in0.0 mm 0.00 in0.0 mm 0.00 in0.0 mm
09:46 AM 37.0°F2.8°C 24.4°F-4.2°C 60% 5.4 mph NNW8.7 kmh NNW 8.1 mph13.0 kmh 29.78 in1008.5 mb 0.00 in0.0 mm 0.00 in0.0 mm 0.00 in0.0 mm
09:45 AM 37.0°F2.8°C 24.4°F-4.2°C 60% 6.7 mph W10.8 kmh W 10.3 mph16.6 kmh 29.78 in1008.5 mb 0.00 in0.0 mm 0.00 in0.0 mm 0.00 in0.0 mm
09:44 AM 37.0°F2.8°C 24.0°F-4.4°C 59% 2.9 mph W4.7 kmh W 4.5 mph7.2 kmh 29.78 in1008.5 mb 0.00 in0.0 mm 0.00 in0.0 mm 0.00 in0.0 mm
09:43 AM 37.0°F2.8°C 24.0°F-4.4°C 59% 6.5 mph NW10.5 kmh NW 10.3 mph16.6 kmh 29.78 in1008.5 mb 0.00 in0.0 mm 0.00 in0.0 mm 0.00 in0.0 mm
09:42 AM 37.0°F2.8°C 24.0°F-4.4°C 59% 7.2 mph WNW11.6 kmh WNW 10.3 mph16.6 kmh 29.78 in1008.5 mb 0.00 in0.0 mm 0.00 in0.0 mm 0.00 in0.0 mm
09:41 AM 37.0°F2.8°C 24.4°F-4.2°C 60% 8.5 mph WNW13.7 kmh WNW 11.4 mph18.3 kmh 29.78 in1008.5 mb 0.00 in0.0 mm 0.00 in0.0 mm 0.00 in0.0 mm
09:40 AM 37.0°F2.8°C 24.4°F-4.2°C 60% 7.6 mph NW12.2 kmh NW 10.3 mph16.6 kmh 29.78 in1008.5 mb 0.00 in0.0 mm 0.00 in0.0 mm 0.00 in0.0 mm
09:39 AM 37.0°F2.8°C 24.4°F-4.2°C 60% 10.1 mph NW16.3 kmh NW 13.6 mph21.9 kmh 29.78 in1008.5 mb 0.00 in0.0 mm 0.00 in0.0 mm 0.00 in0.0 mm
09:38 AM 37.0°F2.8°C 24.4°F-4.2°C 60% 11.6 mph W18.7 kmh W 12.5 mph20.1 kmh 29.77 in1008.1 mb 0.00 in0.0 mm 0.00 in0.0 mm 0.00 in0.0 mm
09:37 AM 37.0°F2.8°C 24.4°F-4.2°C 60% 6.3 mph SW10.1 kmh SW 10.3 mph16.6 kmh 29.77 in1008.1 mb 0.00 in0.0 mm 0.00 in0.0 mm 0.00 in0.0 mm
09:36 AM 36.9°F2.7°C 24.3°F-4.3°C 60% 5.4 mph SSE8.7 kmh SSE 10.3 mph16.6 kmh 29.76 in1007.8 mb 0.00 in0.0 mm 0.00 in0.0 mm 0.00 in0.0 mm
09:35 AM 36.9°F2.7°C 24.3°F-4.3°C 60% 9.6 mph NW15.4 kmh NW 12.5 mph20.1 kmh 29.78 in1008.5 mb 0.00 in0.0 mm 0.00 in0.0 mm 0.00 in0.0 mm
09:34 AM 37.0°F2.8°C 24.4°F-4.2°C 60% 13.2 mph W21.2 kmh W 14.8 mph23.8 kmh 29.77 in1008.1 mb 0.00 in0.0 mm 0.00 in0.0 mm 0.00 in0.0 mm
09:33 AM 37.0°F2.8°C 24.4°F-4.2°C 60% 8.5 mph NW13.7 kmh NW 14.8 mph23.8 kmh 29.77 in1008.1 mb 0.00 in0.0 mm 0.00 in0.0 mm 0.00 in0.0 mm
09:32 AM 36.9°F2.7°C 24.7°F-4.1°C 61% 6.7 mph N10.8 kmh N 10.3 mph16.6 kmh 29.78 in1008.5 mb 0.00 in0.0 mm 0.00 in0.0 mm 0.00 in0.0 mm
09:31 AM 37.0°F2.8°C 24.4°F-4.2°C 60% 5.8 mph WNW9.3 kmh WNW 8.1 mph13.0 kmh 29.77 in1008.1 mb 0.00 in0.0 mm 0.00 in0.0 mm 0.00 in0.0 mm
09:30 AM 37.0°F2.8°C 24.4°F-4.2°C 60% 10.5 mph WSW16.9 kmh WSW 13.6 mph21.9 kmh 29.77 in1008.1 mb 0.00 in0.0 mm 0.00 in0.0 mm 0.00 in0.0 mm
09:29 AM 37.0°F2.8°C 24.4°F-4.2°C 60% 7.8 mph NW12.6 kmh NW 11.4 mph18.3 kmh 29.76 in1007.8 mb 0.00 in0.0 mm 0.00 in0.0 mm 0.00 in0.0 mm
09:28 AM 36.9°F2.7°C 24.3°F-4.3°C 60% 5.8 mph NNW9.3 kmh NNW 9.2 mph14.8 kmh 29.77 in1008.1 mb 0.00 in0.0 mm 0.00 in0.0 mm 0.00 in0.0 mm
09:27 AM 36.9°F2.7°C 24.3°F-4.3°C 60% 10.3 mph WSW16.6 kmh WSW 14.8 mph23.8 kmh 29.76 in1007.8 mb 0.00 in0.0 mm 0.00 in0.0 mm 0.00 in0.0 mm
09:26 AM 36.9°F2.7°C 24.7°F-4.1°C 61% 5.8 mph SW9.3 kmh SW 6.9 mph11.1 kmh 29.76 in1007.8 mb 0.00 in0.0 mm 0.00 in0.0 mm 0.00 in0.0 mm
09:25 AM 36.9°F2.7°C 24.3°F-4.3°C 60% 9.6 mph NW15.4 kmh NW 14.8 mph23.8 kmh 29.76 in1007.8 mb 0.00 in0.0 mm 0.00 in0.0 mm 0.00 in0.0 mm
09:24 AM 36.9°F2.7°C 24.3°F-4.3°C 60% 13.0 mph NW20.9 kmh NW 15.9 mph25.6 kmh 29.77 in1008.1 mb 0.00 in0.0 mm 0.00 in0.0 mm 0.00 in0.0 mm
09:23 AM 36.9°F2.7°C 24.7°F-4.1°C 61% 5.8 mph WNW9.3 kmh WNW 9.2 mph14.8 kmh 29.76 in1007.8 mb 0.00 in0.0 mm 0.00 in0.0 mm 0.00 in0.0 mm
09:22 AM 36.9°F2.7°C 24.3°F-4.3°C 60% 11.0 mph NW17.7 kmh NW 13.6 mph21.9 kmh 29.76 in1007.8 mb 0.00 in0.0 mm 0.00 in0.0 mm 0.00 in0.0 mm
09:21 AM 36.9°F2.7°C 24.7°F-4.1°C 61% 5.8 mph NW9.3 kmh NW 6.9 mph11.1 kmh 29.76 in1007.8 mb 0.00 in0.0 mm 0.00 in0.0 mm 0.00 in0.0 mm
09:20 AM 36.9°F2.7°C 24.7°F-4.1°C 61% 5.4 mph N8.7 kmh N 6.9 mph11.1 kmh 29.76 in1007.8 mb 0.00 in0.0 mm 0.00 in0.0 mm 0.00 in0.0 mm
09:19 AM 36.9°F2.7°C 24.7°F-4.1°C 61% 5.8 mph NW9.3 kmh NW 8.1 mph13.0 kmh 29.76 in1007.8 mb 0.00 in0.0 mm 0.00 in0.0 mm 0.00 in0.0 mm
09:18 AM 36.9°F2.7°C 24.7°F-4.1°C 61% 3.8 mph WSW6.1 kmh WSW 4.5 mph7.2 kmh 29.76 in1007.8 mb 0.00 in0.0 mm 0.00 in0.0 mm 0.00 in0.0 mm
09:17 AM 36.9°F2.7°C 24.7°F-4.1°C 61% 5.8 mph NW9.3 kmh NW 10.3 mph16.6 kmh 29.76 in1007.8 mb 0.00 in0.0 mm 0.00 in0.0 mm 0.00 in0.0 mm
09:16 AM 36.7°F2.6°C 24.9°F-3.9°C 62% 4.7 mph NNW7.6 kmh NNW 5.8 mph9.3 kmh 29.76 in1007.8 mb 0.00 in0.0 mm 0.00 in0.0 mm 0.00 in0.0 mm
09:15 AM 36.7°F2.6°C 24.5°F-4.2°C 61% 5.4 mph WSW8.7 kmh WSW 8.1 mph13.0 kmh 29.76 in1007.8 mb 0.00 in0.0 mm 0.00 in0.0 mm 0.00 in0.0 mm
09:14 AM 36.7°F2.6°C 24.5°F-4.2°C 61% 6.3 mph W10.1 kmh W 6.9 mph11.1 kmh 29.77 in1008.1 mb 0.00 in0.0 mm 0.00 in0.0 mm 0.00 in0.0 mm
09:13 AM 36.7°F2.6°C 24.5°F-4.2°C 61% 6.0 mph SW9.7 kmh SW 8.1 mph13.0 kmh 29.76 in1007.8 mb 0.00 in0.0 mm 0.00 in0.0 mm 0.00 in0.0 mm
09:12 AM 36.7°F2.6°C 24.5°F-4.2°C 61% 5.8 mph W9.3 kmh W 8.1 mph13.0 kmh 29.76 in1007.8 mb 0.00 in0.0 mm 0.00 in0.0 mm 0.00 in0.0 mm
09:11 AM 36.7°F2.6°C 24.5°F-4.2°C 61% 8.3 mph WNW13.4 kmh WNW 12.5 mph20.1 kmh 29.76 in1007.8 mb 0.00 in0.0 mm 0.00 in0.0 mm 0.00 in0.0 mm
09:10 AM 36.7°F2.6°C 24.5°F-4.2°C 61% 6.9 mph NW11.1 kmh NW 8.1 mph13.0 kmh 29.76 in1007.8 mb 0.00 in0.0 mm 0.00 in0.0 mm 0.00 in0.0 mm
09:09 AM 36.7°F2.6°C 24.5°F-4.2°C 61% 4.0 mph NW6.4 kmh NW 5.8 mph9.3 kmh 29.76 in1007.8 mb 0.00 in0.0 mm 0.00 in0.0 mm 0.00 in0.0 mm
09:08 AM 36.7°F2.6°C 24.9°F-3.9°C 62% 6.5 mph WNW10.5 kmh WNW 10.3 mph16.6 kmh 29.76 in1007.8 mb 0.00 in0.0 mm 0.00 in0.0 mm 0.00 in0.0 mm
09:07 AM 36.7°F2.6°C 24.5°F-4.2°C 61% 6.9 mph NW11.1 kmh NW 10.3 mph16.6 kmh 29.75 in1007.5 mb 0.00 in0.0 mm 0.00 in0.0 mm 0.00 in0.0 mm
09:06 AM 36.7°F2.6°C 24.9°F-3.9°C 62% 10.5 mph W16.9 kmh W 12.5 mph20.1 kmh 29.76 in1007.8 mb 0.00 in0.0 mm 0.00 in0.0 mm 0.00 in0.0 mm
09:05 AM 36.5°F2.5°C 24.7°F-4.1°C 62% 4.5 mph NW7.2 kmh NW 5.8 mph9.3 kmh 29.76 in1007.8 mb 0.00 in0.0 mm 0.00 in0.0 mm 0.00 in0.0 mm
09:04 AM 36.5°F2.5°C 24.7°F-4.1°C 62% 9.2 mph NW14.8 kmh NW 13.6 mph21.9 kmh 29.76 in1007.8 mb 0.00 in0.0 mm 0.00 in0.0 mm 0.00 in0.0 mm
09:03 AM 36.5°F2.5°C 24.7°F-4.1°C 62% 3.4 mph N5.5 kmh N 4.5 mph7.2 kmh 29.76 in1007.8 mb 0.00 in0.0 mm 0.00 in0.0 mm 0.00 in0.0 mm
09:02 AM 36.5°F2.5°C 24.7°F-4.1°C 62% 9.2 mph NNW14.8 kmh NNW 14.8 mph23.8 kmh 29.76 in1007.8 mb 0.00 in0.0 mm 0.00 in0.0 mm 0.00 in0.0 mm
09:01 AM 36.5°F2.5°C 24.7°F-4.1°C 62% 11.6 mph WNW18.7 kmh WNW 12.5 mph20.1 kmh 29.76 in1007.8 mb 0.00 in0.0 mm 0.00 in0.0 mm 0.00 in0.0 mm
09:00 AM 36.5°F2.5°C 24.7°F-4.1°C 62% 5.1 mph SW8.2 kmh SW 6.9 mph11.1 kmh 29.76 in1007.8 mb 0.00 in0.0 mm 0.00 in0.0 mm 0.00 in0.0 mm
08:59 AM 36.5°F2.5°C 25.1°F-3.8°C 63% 4.9 mph NW7.9 kmh NW 6.9 mph11.1 kmh 29.75 in1007.5 mb 0.00 in0.0 mm 0.00 in0.0 mm 0.00 in0.0 mm
08:58 AM 36.5°F2.5°C 25.1°F-3.8°C 63% 4.5 mph NW7.2 kmh NW 5.8 mph9.3 kmh 29.76 in1007.8 mb 0.00 in0.0 mm 0.00 in0.0 mm 0.00 in0.0 mm
08:57 AM 36.3°F2.4°C 24.9°F-3.9°C 63% 5.1 mph NW8.2 kmh NW 6.9 mph11.1 kmh 29.76 in1007.8 mb 0.00 in0.0 mm 0.00 in0.0 mm 0.00 in0.0 mm
08:56 AM 36.3°F2.4°C 24.5°F-4.2°C 62% 7.4 mph NW11.9 kmh NW 10.3 mph16.6 kmh 29.75 in1007.5 mb 0.00 in0.0 mm 0.00 in0.0 mm 0.00 in0.0 mm
08:55 AM 36.3°F2.4°C 24.5°F-4.2°C 62% 9.2 mph WNW14.8 kmh WNW 10.3 mph16.6 kmh 29.75 in1007.5 mb 0.00 in0.0 mm 0.00 in0.0 mm 0.00 in0.0 mm
08:54 AM 36.3°F2.4°C 24.9°F-3.9°C 63% 3.4 mph NW5.5 kmh NW 3.4 mph5.5 kmh 29.75 in1007.5 mb 0.00 in0.0 mm 0.00 in0.0 mm 0.00 in0.0 mm
08:53 AM 36.3°F2.4°C 24.9°F-3.9°C 63% 7.4 mph W11.9 kmh W 10.3 mph16.6 kmh 29.76 in1007.8 mb 0.00 in0.0 mm 0.00 in0.0 mm 0.00 in0.0 mm
08:52 AM 36.3°F2.4°C 24.5°F-4.2°C 62% 6.9 mph NW11.1 kmh NW 9.2 mph14.8 kmh 29.75 in1007.5 mb 0.00 in0.0 mm 0.00 in0.0 mm 0.00 in0.0 mm
08:51 AM 36.3°F2.4°C 24.5°F-4.2°C 62% 8.7 mph WNW14.0 kmh WNW 10.3 mph16.6 kmh 29.76 in1007.8 mb 0.00 in0.0 mm 0.00 in0.0 mm 0.00 in0.0 mm
08:50 AM 36.3°F2.4°C 24.5°F-4.2°C 62% 4.3 mph WNW6.9 kmh WNW 6.9 mph11.1 kmh 29.75 in1007.5 mb 0.00 in0.0 mm 0.00 in0.0 mm 0.00 in0.0 mm
08:49 AM 36.3°F2.4°C 24.5°F-4.2°C 62% 8.5 mph NW13.7 kmh NW 10.3 mph16.6 kmh 29.75 in1007.5 mb 0.00 in0.0 mm 0.00 in0.0 mm 0.00 in0.0 mm
08:48 AM 36.3°F2.4°C 24.9°F-3.9°C 63% 6.0 mph NW9.7 kmh NW 6.9 mph11.1 kmh 29.76 in1007.8 mb 0.00 in0.0 mm 0.00 in0.0 mm 0.00 in0.0 mm
08:47 AM 36.3°F2.4°C 24.9°F-3.9°C 63% 6.0 mph W9.7 kmh W 10.3 mph16.6 kmh 29.75 in1007.5 mb 0.00 in0.0 mm 0.00 in0.0 mm 0.00 in0.0 mm
08:46 AM 36.3°F2.4°C 24.9°F-3.9°C 63% 4.9 mph NW7.9 kmh NW 6.9 mph11.1 kmh 29.75 in1007.5 mb 0.00 in0.0 mm 0.00 in0.0 mm 0.00 in0.0 mm
08:45 AM 36.3°F2.4°C 24.9°F-3.9°C 63% 3.6 mph WNW5.8 kmh WNW 4.5 mph7.2 kmh 29.75 in1007.5 mb 0.00 in0.0 mm 0.00 in0.0 mm 0.00 in0.0 mm
08:44 AM 36.3°F2.4°C 24.9°F-3.9°C 63% 5.6 mph WNW9.0 kmh WNW 8.1 mph13.0 kmh 29.75 in1007.5 mb 0.00 in0.0 mm 0.00 in0.0 mm 0.00 in0.0 mm
08:43 AM 36.3°F2.4°C 24.9°F-3.9°C 63% 4.3 mph NW6.9 kmh NW 6.9 mph11.1 kmh 29.75 in1007.5 mb 0.00 in0.0 mm 0.00 in0.0 mm 0.00 in0.0 mm
08:42 AM 36.1°F2.3°C 24.7°F-4.1°C 63% 6.0 mph WSW9.7 kmh WSW 6.9 mph11.1 kmh 29.74 in1007.1 mb 0.00 in0.0 mm 0.00 in0.0 mm 0.00 in0.0 mm
08:41 AM 36.1°F2.3°C 24.7°F-4.1°C 63% 6.5 mph NW10.5 kmh NW 10.3 mph16.6 kmh 29.75 in1007.5 mb 0.00 in0.0 mm 0.00 in0.0 mm 0.00 in0.0 mm
08:40 AM 36.1°F2.3°C 24.7°F-4.1°C 63% 7.2 mph WNW11.6 kmh WNW 9.2 mph14.8 kmh 29.74 in1007.1 mb 0.00 in0.0 mm 0.00 in0.0 mm 0.00 in0.0 mm
08:39 AM 36.1°F2.3°C 24.7°F-4.1°C 63% 3.6 mph WSW5.8 kmh WSW 5.8 mph9.3 kmh 29.75 in1007.5 mb 0.00 in0.0 mm 0.00 in0.0 mm 0.00 in0.0 mm
08:38 AM 36.1°F2.3°C 24.7°F-4.1°C 63% 4.9 mph WNW7.9 kmh WNW 6.9 mph11.1 kmh 29.75 in1007.5 mb 0.00 in0.0 mm 0.00 in0.0 mm 0.00 in0.0 mm
08:37 AM 36.1°F2.3°C 24.7°F-4.1°C 63% 3.1 mph WNW5.0 kmh WNW 5.8 mph9.3 kmh 29.74 in1007.1 mb 0.00 in0.0 mm 0.00 in0.0 mm 0.00 in0.0 mm
08:36 AM 36.1°F2.3°C 24.7°F-4.1°C 63% 5.4 mph WNW8.7 kmh WNW 8.1 mph13.0 kmh 29.74 in1007.1 mb 0.00 in0.0 mm 0.00 in0.0 mm 0.00 in0.0 mm
08:35 AM 36.1°F2.3°C 24.7°F-4.1°C 63% 4.5 mph WNW7.2 kmh WNW 6.9 mph11.1 kmh 29.74 in1007.1 mb 0.00 in0.0 mm 0.00 in0.0 mm 0.00 in0.0 mm
08:34 AM 36.1°F2.3°C 24.7°F-4.1°C 63% 4.5 mph WSW7.2 kmh WSW 9.2 mph14.8 kmh 29.74 in1007.1 mb 0.00 in0.0 mm 0.00 in0.0 mm 0.00 in0.0 mm
08:33 AM 36.1°F2.3°C 24.7°F-4.1°C 63% 13.2 mph NW21.2 kmh NW 15.9 mph25.6 kmh 29.74 in1007.1 mb 0.00 in0.0 mm 0.00 in0.0 mm 0.00 in0.0 mm
08:32 AM 36.1°F2.3°C 24.7°F-4.1°C 63% 6.5 mph NW10.5 kmh NW 8.1 mph13.0 kmh 29.73 in1006.8 mb 0.00 in0.0 mm 0.00 in0.0 mm 0.00 in0.0 mm
08:31 AM 36.1°F2.3°C 24.7°F-4.1°C 63% 4.7 mph WNW7.6 kmh WNW 5.8 mph9.3 kmh 29.73 in1006.8 mb 0.00 in0.0 mm 0.00 in0.0 mm 0.00 in0.0 mm
08:30 AM 36.1°F2.3°C 24.7°F-4.1°C 63% 3.6 mph W5.8 kmh W 4.5 mph7.2 kmh 29.73 in1006.8 mb 0.00 in0.0 mm 0.00 in0.0 mm 0.00 in0.0 mm
08:29 AM 36.1°F2.3°C 24.7°F-4.1°C 63% 10.7 mph WNW17.2 kmh WNW 12.5 mph20.1 kmh 29.73 in1006.8 mb 0.00 in0.0 mm 0.00 in0.0 mm 0.00 in0.0 mm
08:28 AM 36.1°F2.3°C 24.7°F-4.1°C 63% 4.9 mph WNW7.9 kmh WNW 6.9 mph11.1 kmh 29.73 in1006.8 mb 0.00 in0.0 mm 0.00 in0.0 mm 0.00 in0.0 mm
08:27 AM 36.1°F2.3°C 24.7°F-4.1°C 63% 6.0 mph WNW9.7 kmh WNW 9.2 mph14.8 kmh 29.73 in1006.8 mb 0.00 in0.0 mm 0.00 in0.0 mm 0.00 in0.0 mm
08:26 AM 36.1°F2.3°C 24.7°F-4.1°C 63% 4.9 mph NW7.9 kmh NW 6.9 mph11.1 kmh 29.74 in1007.1 mb 0.00 in0.0 mm 0.00 in0.0 mm 0.00 in0.0 mm
08:25 AM 36.0°F2.2°C 24.6°F-4.1°C 63% 6.9 mph WSW11.1 kmh WSW 9.2 mph14.8 kmh 29.73 in1006.8 mb 0.00 in0.0 mm 0.00 in0.0 mm 0.00 in0.0 mm
08:24 AM 36.0°F2.2°C 24.6°F-4.1°C 63% 5.6 mph NW9.0 kmh NW 6.9 mph11.1 kmh 29.73 in1006.8 mb 0.00 in0.0 mm 0.00 in0.0 mm 0.00 in0.0 mm
08:23 AM 36.0°F2.2°C 24.6°F-4.1°C 63% 6.0 mph NNW9.7 kmh NNW 8.1 mph13.0 kmh 29.73 in1006.8 mb 0.00 in0.0 mm 0.00 in0.0 mm 0.00 in0.0 mm
08:22 AM 36.0°F2.2°C 24.6°F-4.1°C 63% 4.3 mph NNW6.9 kmh NNW 4.5 mph7.2 kmh 29.73 in1006.8 mb 0.00 in0.0 mm 0.00 in0.0 mm 0.00 in0.0 mm
08:21 AM 36.0°F2.2°C 24.6°F-4.1°C 63% 10.1 mph NW16.3 kmh NW 13.6 mph21.9 kmh 29.73 in1006.8 mb 0.00 in0.0 mm 0.00 in0.0 mm 0.00 in0.0 mm
08:20 AM 36.0°F2.2°C 24.6°F-4.1°C 63% 3.4 mph NNW5.5 kmh NNW 3.4 mph5.5 kmh 29.73 in1006.8 mb 0.00 in0.0 mm 0.00 in0.0 mm 0.00 in0.0 mm
08:19 AM 36.0°F2.2°C 24.6°F-4.1°C 63% 10.1 mph W16.3 kmh W 12.5 mph20.1 kmh 29.73 in1006.8 mb 0.00 in0.0 mm 0.00 in0.0 mm 0.00 in0.0 mm
08:18 AM 36.0°F2.2°C 24.6°F-4.1°C 63% 6.9 mph NW11.1 kmh NW 8.1 mph13.0 kmh 29.73 in1006.8 mb 0.00 in0.0 mm 0.00 in0.0 mm 0.00 in0.0 mm
08:17 AM 36.0°F2.2°C 24.6°F-4.1°C 63% 5.8 mph NW9.3 kmh NW 8.1 mph13.0 kmh 29.73 in1006.8 mb 0.00 in0.0 mm 0.00 in0.0 mm 0.00 in0.0 mm
08:16 AM 36.0°F2.2°C 24.6°F-4.1°C 63% 6.0 mph NW9.7 kmh NW 9.2 mph14.8 kmh 29.73 in1006.8 mb 0.00 in0.0 mm 0.00 in0.0 mm 0.00 in0.0 mm
08:15 AM 36.0°F2.2°C 24.6°F-4.1°C 63% 5.8 mph NNW9.3 kmh NNW 8.1 mph13.0 kmh 29.73 in1006.8 mb 0.00 in0.0 mm 0.00 in0.0 mm 0.00 in0.0 mm
08:14 AM 36.0°F2.2°C 24.6°F-4.1°C 63% 9.2 mph W14.8 kmh W 11.4 mph18.3 kmh 29.73 in1006.8 mb 0.00 in0.0 mm 0.00 in0.0 mm 0.00 in0.0 mm
08:13 AM 35.8°F2.1°C 24.5°F-4.2°C 63% 6.0 mph N9.7 kmh N 8.1 mph13.0 kmh 29.72 in1006.4 mb 0.00 in0.0 mm 0.00 in0.0 mm 0.00 in0.0 mm
08:12 AM 35.8°F2.1°C 24.5°F-4.2°C 63% 5.6 mph WNW9.0 kmh WNW 8.1 mph13.0 kmh 29.73 in1006.8 mb 0.00 in0.0 mm 0.00 in0.0 mm 0.00 in0.0 mm
08:11 AM 35.8°F2.1°C 24.5°F-4.2°C 63% 7.8 mph WNW12.6 kmh WNW 10.3 mph16.6 kmh 29.73 in1006.8 mb 0.00 in0.0 mm 0.00 in0.0 mm 0.00 in0.0 mm
08:10 AM 35.8°F2.1°C 24.8°F-4.0°C 64% 6.9 mph WNW11.1 kmh WNW 11.4 mph18.3 kmh 29.73 in1006.8 mb 0.00 in0.0 mm 0.00 in0.0 mm 0.00 in0.0 mm
08:09 AM 35.8°F2.1°C 24.8°F-4.0°C 64% 5.1 mph NW8.2 kmh NW 5.8 mph9.3 kmh 29.73 in1006.8 mb 0.00 in0.0 mm 0.00 in0.0 mm 0.00 in0.0 mm
08:08 AM 35.8°F2.1°C 24.8°F-4.0°C 64% 7.6 mph NW12.2 kmh NW 9.2 mph14.8 kmh 29.73 in1006.8 mb 0.00 in0.0 mm 0.00 in0.0 mm 0.00 in0.0 mm
08:07 AM 35.8°F2.1°C 24.5°F-4.2°C 63% 6.5 mph SE10.5 kmh SE 9.2 mph14.8 kmh 29.73 in1006.8 mb 0.00 in0.0 mm 0.00 in0.0 mm 0.00 in0.0 mm
08:06 AM 35.8°F2.1°C 24.8°F-4.0°C 64% 3.6 mph NW5.8 kmh NW 4.5 mph7.2 kmh 29.72 in1006.4 mb 0.00 in0.0 mm 0.00 in0.0 mm 0.00 in0.0 mm
08:05 AM 35.6°F2.0°C 24.3°F-4.3°C 63% 8.1 mph NW13.0 kmh NW 11.4 mph18.3 kmh 29.73 in1006.8 mb 0.00 in0.0 mm 0.00 in0.0 mm 0.00 in0.0 mm
08:04 AM 35.6°F2.0°C 24.3°F-4.3°C 63% 6.0 mph SSW9.7 kmh SSW 8.1 mph13.0 kmh 29.72 in1006.4 mb 0.00 in0.0 mm 0.00 in0.0 mm 0.00 in0.0 mm
08:03 AM 35.6°F2.0°C 24.3°F-4.3°C 63% 8.3 mph NW13.4 kmh NW 14.8 mph23.8 kmh 29.72 in1006.4 mb 0.00 in0.0 mm 0.00 in0.0 mm 0.00 in0.0 mm
08:02 AM 35.6°F2.0°C 24.3°F-4.3°C 63% 4.3 mph SE6.9 kmh SE 6.9 mph11.1 kmh 29.73 in1006.8 mb 0.00 in0.0 mm 0.00 in0.0 mm 0.00 in0.0 mm
08:01 AM 35.6°F2.0°C 24.3°F-4.3°C 63% 6.5 mph NW10.5 kmh NW 9.2 mph14.8 kmh 29.72 in1006.4 mb 0.00 in0.0 mm 0.00 in0.0 mm 0.00 in0.0 mm
08:00 AM 35.6°F2.0°C 24.6°F-4.1°C 64% 6.3 mph NW10.1 kmh NW 8.1 mph13.0 kmh 29.72 in1006.4 mb 0.00 in0.0 mm 0.00 in0.0 mm 0.00 in0.0 mm
07:59 AM 35.6°F2.0°C 24.6°F-4.1°C 64% 6.9 mph NW11.1 kmh NW 10.3 mph16.6 kmh 29.72 in1006.4 mb 0.00 in0.0 mm 0.00 in0.0 mm 0.00 in0.0 mm
07:58 AM 35.6°F2.0°C 24.6°F-4.1°C 64% 4.0 mph SW6.4 kmh SW 5.8 mph9.3 kmh 29.72 in1006.4 mb 0.00 in0.0 mm 0.00 in0.0 mm 0.00 in0.0 mm
07:57 AM 35.6°F2.0°C 24.6°F-4.1°C 64% 4.7 mph NW7.6 kmh NW 5.8 mph9.3 kmh 29.72 in1006.4 mb 0.00 in0.0 mm 0.00 in0.0 mm 0.00 in0.0 mm
07:56 AM 35.6°F2.0°C 24.6°F-4.1°C 64% 8.9 mph WNW14.3 kmh WNW 11.4 mph18.3 kmh 29.72 in1006.4 mb 0.00 in0.0 mm 0.00 in0.0 mm 0.00 in0.0 mm
07:55 AM 35.4°F1.9°C 24.5°F-4.2°C 64% 2.9 mph W4.7 kmh W 3.4 mph5.5 kmh 29.73 in1006.8 mb 0.00 in0.0 mm 0.00 in0.0 mm 0.00 in0.0 mm
07:54 AM 35.4°F1.9°C 24.5°F-4.2°C 64% 8.1 mph NW13.0 kmh NW 10.3 mph16.6 kmh 29.72 in1006.4 mb 0.00 in0.0 mm 0.00 in0.0 mm 0.00 in0.0 mm
07:53 AM 35.4°F1.9°C 24.5°F-4.2°C 64% 5.1 mph SW8.2 kmh SW 6.9 mph11.1 kmh 29.71 in1006.1 mb 0.00 in0.0 mm 0.00 in0.0 mm 0.00 in0.0 mm
07:52 AM 35.4°F1.9°C 24.1°F-4.4°C 63% 6.9 mph NW11.1 kmh NW 9.2 mph14.8 kmh 29.71 in1006.1 mb 0.00 in0.0 mm 0.00 in0.0 mm 0.00 in0.0 mm
07:51 AM 35.4°F1.9°C 24.1°F-4.4°C 63% 7.4 mph WNW11.9 kmh WNW 11.4 mph18.3 kmh 29.71 in1006.1 mb 0.00 in0.0 mm 0.00 in0.0 mm 0.00 in0.0 mm
07:50 AM 35.4°F1.9°C 24.1°F-4.4°C 63% 7.6 mph SW12.2 kmh SW 9.2 mph14.8 kmh 29.71 in1006.1 mb 0.00 in0.0 mm 0.00 in0.0 mm 0.00 in0.0 mm
07:49 AM 35.4°F1.9°C 24.1°F-4.4°C 63% 10.5 mph WNW16.9 kmh WNW 12.5 mph20.1 kmh 29.71 in1006.1 mb 0.00 in0.0 mm 0.00 in0.0 mm 0.00 in0.0 mm
07:48 AM 35.4°F1.9°C 24.1°F-4.4°C 63% 7.8 mph S12.6 kmh S 13.6 mph21.9 kmh 29.72 in1006.4 mb 0.00 in0.0 mm 0.00 in0.0 mm 0.00 in0.0 mm
07:47 AM 35.4°F1.9°C 24.5°F-4.2°C 64% 10.5 mph WNW16.9 kmh WNW 14.8 mph23.8 kmh 29.71 in1006.1 mb 0.00 in0.0 mm 0.00 in0.0 mm 0.00 in0.0 mm
07:46 AM 35.4°F1.9°C 24.5°F-4.2°C 64% 5.4 mph NW8.7 kmh NW 6.9 mph11.1 kmh 29.71 in1006.1 mb 0.00 in0.0 mm 0.00 in0.0 mm 0.00 in0.0 mm
07:45 AM 35.4°F1.9°C 24.1°F-4.4°C 63% 7.8 mph WNW12.6 kmh WNW 10.3 mph16.6 kmh 29.72 in1006.4 mb 0.00 in0.0 mm 0.00 in0.0 mm 0.00 in0.0 mm
07:44 AM 35.4°F1.9°C 24.1°F-4.4°C 63% 7.4 mph NNW11.9 kmh NNW 11.4 mph18.3 kmh 29.71 in1006.1 mb 0.00 in0.0 mm 0.00 in0.0 mm 0.00 in0.0 mm
07:43 AM 35.4°F1.9°C 24.5°F-4.2°C 64% 6.7 mph WNW10.8 kmh WNW 9.2 mph14.8 kmh 29.72 in1006.4 mb 0.00 in0.0 mm 0.00 in0.0 mm 0.00 in0.0 mm
07:42 AM 35.4°F1.9°C 24.1°F-4.4°C 63% 4.9 mph NW7.9 kmh NW 6.9 mph11.1 kmh 29.71 in1006.1 mb 0.00 in0.0 mm 0.00 in0.0 mm 0.00 in0.0 mm
07:41 AM 35.4°F1.9°C 24.1°F-4.4°C 63% 6.3 mph WNW10.1 kmh WNW 8.1 mph13.0 kmh 29.71 in1006.1 mb 0.00 in0.0 mm 0.00 in0.0 mm 0.00 in0.0 mm
07:40 AM 35.4°F1.9°C 24.1°F-4.4°C 63% 8.9 mph WNW14.3 kmh WNW 10.3 mph16.6 kmh 29.71 in1006.1 mb 0.00 in0.0 mm 0.00 in0.0 mm 0.00 in0.0 mm
07:39 AM 35.2°F1.8°C 23.9°F-4.5°C 63% 5.4 mph W8.7 kmh W 9.2 mph14.8 kmh 29.72 in1006.4 mb 0.00 in0.0 mm 0.00 in0.0 mm 0.00 in0.0 mm
07:38 AM 35.2°F1.8°C 23.9°F-4.5°C 63% 10.7 mph WNW17.2 kmh WNW 13.6 mph21.9 kmh 29.72 in1006.4 mb 0.00 in0.0 mm 0.00 in0.0 mm 0.00 in0.0 mm
07:37 AM 35.2°F1.8°C 23.9°F-4.5°C 63% 7.2 mph NW11.6 kmh NW 9.2 mph14.8 kmh 29.71 in1006.1 mb 0.00 in0.0 mm 0.00 in0.0 mm 0.00 in0.0 mm
07:36 AM 35.2°F1.8°C 23.9°F-4.5°C 63% 7.2 mph W11.6 kmh W 9.2 mph14.8 kmh 29.71 in1006.1 mb 0.00 in0.0 mm 0.00 in0.0 mm 0.00 in0.0 mm
07:35 AM 35.2°F1.8°C 23.9°F-4.5°C 63% 6.3 mph NW10.1 kmh NW 8.1 mph13.0 kmh 29.71 in1006.1 mb 0.00 in0.0 mm 0.00 in0.0 mm 0.00 in0.0 mm
07:34 AM 35.2°F1.8°C 23.9°F-4.5°C 63% 3.8 mph W6.1 kmh W 5.8 mph9.3 kmh 29.71 in1006.1 mb 0.00 in0.0 mm 0.00 in0.0 mm 0.00 in0.0 mm
07:33 AM 35.2°F1.8°C 24.3°F-4.3°C 64% 8.1 mph W13.0 kmh W 11.4 mph18.3 kmh 29.72 in1006.4 mb 0.00 in0.0 mm 0.00 in0.0 mm 0.00 in0.0 mm
07:32 AM 35.2°F1.8°C 23.9°F-4.5°C 63% 5.4 mph NW8.7 kmh NW 6.9 mph11.1 kmh 29.71 in1006.1 mb 0.00 in0.0 mm 0.00 in0.0 mm 0.00 in0.0 mm
07:31 AM 35.1°F1.7°C 24.2°F-4.3°C 64% 5.6 mph N9.0 kmh N 8.1 mph13.0 kmh 29.71 in1006.1 mb 0.00 in0.0 mm 0.00 in0.0 mm 0.00 in0.0 mm
07:30 AM 35.1°F1.7°C 23.8°F-4.6°C 63% 4.9 mph WNW7.9 kmh WNW 5.8 mph9.3 kmh 29.71 in1006.1 mb 0.00 in0.0 mm 0.00 in0.0 mm 0.00 in0.0 mm
07:29 AM 35.1°F1.7°C 24.2°F-4.3°C 64% 8.1 mph WNW13.0 kmh WNW 11.4 mph18.3 kmh 29.71 in1006.1 mb 0.00 in0.0 mm 0.00 in0.0 mm 0.00 in0.0 mm
07:28 AM 35.1°F1.7°C 24.2°F-4.3°C 64% 4.9 mph NNW7.9 kmh NNW 6.9 mph11.1 kmh 29.71 in1006.1 mb 0.00 in0.0 mm 0.00 in0.0 mm 0.00 in0.0 mm
07:27 AM 35.1°F1.7°C 23.8°F-4.6°C 63% 6.3 mph NW10.1 kmh NW 10.3 mph16.6 kmh 29.71 in1006.1 mb 0.00 in0.0 mm 0.00 in0.0 mm 0.00 in0.0 mm
07:26 AM 35.1°F1.7°C 23.8°F-4.6°C 63% 8.9 mph NW14.3 kmh NW 12.5 mph20.1 kmh 29.71 in1006.1 mb 0.00 in0.0 mm 0.00 in0.0 mm 0.00 in0.0 mm
07:25 AM 35.1°F1.7°C 23.8°F-4.6°C 63% 6.7 mph NW10.8 kmh NW 9.2 mph14.8 kmh 29.71 in1006.1 mb 0.00 in0.0 mm 0.00 in0.0 mm 0.00 in0.0 mm
07:24 AM 35.1°F1.7°C 23.8°F-4.6°C 63% 8.9 mph W14.3 kmh W 10.3 mph16.6 kmh 29.71 in1006.1 mb 0.00 in0.0 mm 0.00 in0.0 mm 0.00 in0.0 mm
07:23 AM 35.1°F1.7°C 23.8°F-4.6°C 63% 4.9 mph NW7.9 kmh NW 6.9 mph11.1 kmh 29.71 in1006.1 mb 0.00 in0.0 mm 0.00 in0.0 mm 0.00 in0.0 mm
07:22 AM 35.1°F1.7°C 23.8°F-4.6°C 63% 3.8 mph NW6.1 kmh NW 8.1 mph13.0 kmh 29.70 in1005.8 mb 0.00 in0.0 mm 0.00 in0.0 mm 0.00 in0.0 mm
07:21 AM 35.1°F1.7°C 23.8°F-4.6°C 63% 6.3 mph NW10.1 kmh NW 8.1 mph13.0 kmh 29.70 in1005.8 mb 0.00 in0.0 mm 0.00 in0.0 mm 0.00 in0.0 mm
07:20 AM 35.1°F1.7°C 23.8°F-4.6°C 63% 5.4 mph NE8.7 kmh NE 6.9 mph11.1 kmh 29.70 in1005.8 mb 0.00 in0.0 mm 0.00 in0.0 mm 0.00 in0.0 mm
07:19 AM 35.1°F1.7°C 23.8°F-4.6°C 63% 6.5 mph NW10.5 kmh NW 10.3 mph16.6 kmh 29.70 in1005.8 mb 0.00 in0.0 mm 0.00 in0.0 mm 0.00 in0.0 mm
07:18 AM 34.9°F1.6°C 23.6°F-4.7°C 63% 6.9 mph W11.1 kmh W 10.3 mph16.6 kmh 29.71 in1006.1 mb 0.00 in0.0 mm 0.00 in0.0 mm 0.00 in0.0 mm
07:17 AM 34.9°F1.6°C 23.6°F-4.7°C 63% 5.8 mph NNW9.3 kmh NNW 9.2 mph14.8 kmh 29.70 in1005.8 mb 0.00 in0.0 mm 0.00 in0.0 mm 0.00 in0.0 mm
07:16 AM 34.9°F1.6°C 23.6°F-4.7°C 63% 4.9 mph WNW7.9 kmh WNW 5.8 mph9.3 kmh 29.70 in1005.8 mb 0.00 in0.0 mm 0.00 in0.0 mm 0.00 in0.0 mm
07:15 AM 34.9°F1.6°C 23.6°F-4.7°C 63% 4.0 mph WSW6.4 kmh WSW 8.1 mph13.0 kmh 29.70 in1005.8 mb 0.00 in0.0 mm 0.00 in0.0 mm 0.00 in0.0 mm
07:14 AM 35.1°F1.7°C 23.8°F-4.6°C 63% 6.9 mph W11.1 kmh W 9.2 mph14.8 kmh 29.70 in1005.8 mb 0.00 in0.0 mm 0.00 in0.0 mm 0.00 in0.0 mm
07:13 AM 34.9°F1.6°C 23.2°F-4.9°C 62% 5.1 mph NW8.2 kmh NW 8.1 mph13.0 kmh 29.69 in1005.4 mb 0.00 in0.0 mm 0.00 in0.0 mm 0.00 in0.0 mm
07:12 AM 34.9°F1.6°C 23.2°F-4.9°C 62% 5.6 mph NW9.0 kmh NW 8.1 mph13.0 kmh 29.70 in1005.8 mb 0.00 in0.0 mm 0.00 in0.0 mm 0.00 in0.0 mm
07:11 AM 34.9°F1.6°C 23.2°F-4.9°C 62% 3.8 mph W6.1 kmh W 8.1 mph13.0 kmh 29.70 in1005.8 mb 0.00 in0.0 mm 0.00 in0.0 mm 0.00 in0.0 mm
07:10 AM 34.9°F1.6°C 23.6°F-4.7°C 63% 10.5 mph W16.9 kmh W 12.5 mph20.1 kmh 29.70 in1005.8 mb 0.00 in0.0 mm 0.00 in0.0 mm 0.00 in0.0 mm
07:09 AM 34.9°F1.6°C 23.2°F-4.9°C 62% 8.3 mph WNW13.4 kmh WNW 11.4 mph18.3 kmh 29.70 in1005.8 mb 0.00 in0.0 mm 0.00 in0.0 mm 0.00 in0.0 mm
07:08 AM 34.9°F1.6°C 23.6°F-4.7°C 63% 7.4 mph NW11.9 kmh NW 9.2 mph14.8 kmh 29.70 in1005.8 mb 0.00 in0.0 mm 0.00 in0.0 mm 0.00 in0.0 mm
07:07 AM 34.9°F1.6°C 23.2°F-4.9°C 62% 4.0 mph NW6.4 kmh NW 5.8 mph9.3 kmh 29.70 in1005.8 mb 0.00 in0.0 mm 0.00 in0.0 mm 0.00 in0.0 mm
07:06 AM 34.9°F1.6°C 23.2°F-4.9°C 62% 10.1 mph WNW16.3 kmh WNW 12.5 mph20.1 kmh 29.70 in1005.8 mb 0.00 in0.0 mm 0.00 in0.0 mm 0.00 in0.0 mm
07:05 AM 34.9°F1.6°C 23.2°F-4.9°C 62% 8.1 mph NW13.0 kmh NW 10.3 mph16.6 kmh 29.70 in1005.8 mb 0.00 in0.0 mm 0.00 in0.0 mm 0.00 in0.0 mm
07:04 AM 34.9°F1.6°C 23.2°F-4.9°C 62% 4.7 mph WNW7.6 kmh WNW 5.8 mph9.3 kmh 29.70 in1005.8 mb 0.00 in0.0 mm 0.00 in0.0 mm 0.00 in0.0 mm
07:03 AM 34.9°F1.6°C 23.2°F-4.9°C 62% 5.4 mph W8.7 kmh W 6.9 mph11.1 kmh 29.69 in1005.4 mb 0.00 in0.0 mm 0.00 in0.0 mm 0.00 in0.0 mm
07:02 AM 34.9°F1.6°C 23.2°F-4.9°C 62% 9.6 mph NW15.4 kmh NW 11.4 mph18.3 kmh 29.69 in1005.4 mb 0.00 in0.0 mm 0.00 in0.0 mm 0.00 in0.0 mm
07:01 AM 34.9°F1.6°C 23.2°F-4.9°C 62% 8.7 mph N14.0 kmh N 12.5 mph20.1 kmh 29.69 in1005.4 mb 0.00 in0.0 mm 0.00 in0.0 mm 0.00 in0.0 mm
07:00 AM 34.9°F1.6°C 23.2°F-4.9°C 62% 11.6 mph NW18.7 kmh NW 17.2 mph27.7 kmh 29.69 in1005.4 mb 0.00 in0.0 mm 0.00 in0.0 mm 0.00 in0.0 mm
06:59 AM 34.9°F1.6°C 23.2°F-4.9°C 62% 5.8 mph WSW9.3 kmh WSW 6.9 mph11.1 kmh 29.69 in1005.4 mb 0.00 in0.0 mm 0.00 in0.0 mm 0.00 in0.0 mm
06:58 AM 34.9°F1.6°C 23.2°F-4.9°C 62% 8.7 mph SW14.0 kmh SW 11.4 mph18.3 kmh 29.69 in1005.4 mb 0.00 in0.0 mm 0.00 in0.0 mm 0.00 in0.0 mm
06:57 AM 34.9°F1.6°C 23.2°F-4.9°C 62% 6.9 mph NW11.1 kmh NW 9.2 mph14.8 kmh 29.69 in1005.4 mb 0.00 in0.0 mm 0.00 in0.0 mm 0.00 in0.0 mm
06:56 AM 34.9°F1.6°C 23.2°F-4.9°C 62% 6.9 mph WNW11.1 kmh WNW 10.3 mph16.6 kmh 29.69 in1005.4 mb 0.00 in0.0 mm 0.00 in0.0 mm 0.00 in0.0 mm
06:55 AM 34.9°F1.6°C 23.2°F-4.9°C 62% 8.3 mph WNW13.4 kmh WNW 12.5 mph20.1 kmh 29.70 in1005.8 mb 0.00 in0.0 mm 0.00 in0.0 mm 0.00 in0.0 mm
06:54 AM 34.9°F1.6°C 23.2°F-4.9°C 62% 6.0 mph W9.7 kmh W 9.2 mph14.8 kmh 29.68 in1005.1 mb 0.00 in0.0 mm 0.00 in0.0 mm 0.00 in0.0 mm
06:53 AM 34.9°F1.6°C 23.2°F-4.9°C 62% 15.4 mph W24.8 kmh W 20.6 mph33.2 kmh 29.69 in1005.4 mb 0.00 in0.0 mm 0.00 in0.0 mm 0.00 in0.0 mm
06:52 AM 34.9°F1.6°C 23.2°F-4.9°C 62% 6.7 mph WNW10.8 kmh WNW 9.2 mph14.8 kmh 29.69 in1005.4 mb 0.00 in0.0 mm 0.00 in0.0 mm 0.00 in0.0 mm
06:51 AM 34.9°F1.6°C 23.2°F-4.9°C 62% 13.4 mph NW21.6 kmh NW 19.5 mph31.4 kmh 29.68 in1005.1 mb 0.00 in0.0 mm 0.00 in0.0 mm 0.00 in0.0 mm
06:50 AM 34.9°F1.6°C 22.8°F-5.1°C 61% 5.6 mph W9.0 kmh W 8.1 mph13.0 kmh 29.69 in1005.4 mb 0.00 in0.0 mm 0.00 in0.0 mm 0.00 in0.0 mm
06:49 AM 34.9°F1.6°C 23.2°F-4.9°C 62% 8.9 mph WSW14.3 kmh WSW 13.6 mph21.9 kmh 29.69 in1005.4 mb 0.00 in0.0 mm 0.00 in0.0 mm 0.00 in0.0 mm
06:48 AM 34.9°F1.6°C 22.8°F-5.1°C 61% 7.6 mph NW12.2 kmh NW 9.2 mph14.8 kmh 29.68 in1005.1 mb 0.00 in0.0 mm 0.00 in0.0 mm 0.00 in0.0 mm
06:47 AM 34.9°F1.6°C 23.2°F-4.9°C 62% 9.2 mph NW14.8 kmh NW 14.8 mph23.8 kmh 29.68 in1005.1 mb 0.00 in0.0 mm 0.00 in0.0 mm 0.00 in0.0 mm
06:46 AM 34.9°F1.6°C 22.8°F-5.1°C 61% 6.7 mph W10.8 kmh W 9.2 mph14.8 kmh 29.68 in1005.1 mb 0.00 in0.0 mm 0.00 in0.0 mm 0.00 in0.0 mm
06:45 AM 34.9°F1.6°C 22.8°F-5.1°C 61% 7.4 mph W11.9 kmh W 10.3 mph16.6 kmh 29.68 in1005.1 mb 0.00 in0.0 mm 0.00 in0.0 mm 0.00 in0.0 mm
06:44 AM 34.9°F1.6°C 23.2°F-4.9°C 62% 7.2 mph NW11.6 kmh NW 12.5 mph20.1 kmh 29.68 in1005.1 mb 0.00 in0.0 mm 0.00 in0.0 mm 0.00 in0.0 mm
06:43 AM 34.9°F1.6°C 23.2°F-4.9°C 62% 5.8 mph NW9.3 kmh NW 8.1 mph13.0 kmh 29.68 in1005.1 mb 0.00 in0.0 mm 0.00 in0.0 mm 0.00 in0.0 mm
06:42 AM 34.9°F1.6°C 23.2°F-4.9°C 62% 8.1 mph NNW13.0 kmh NNW 10.3 mph16.6 kmh 29.68 in1005.1 mb 0.00 in0.0 mm 0.00 in0.0 mm 0.00 in0.0 mm
06:41 AM 34.9°F1.6°C 23.2°F-4.9°C 62% 4.9 mph NW7.9 kmh NW 6.9 mph11.1 kmh 29.68 in1005.1 mb 0.00 in0.0 mm 0.00 in0.0 mm 0.00 in0.0 mm
06:40 AM 34.9°F1.6°C 22.8°F-5.1°C 61% 7.6 mph NW12.2 kmh NW 11.4 mph18.3 kmh 29.68 in1005.1 mb 0.00 in0.0 mm 0.00 in0.0 mm 0.00 in0.0 mm
06:39 AM 34.9°F1.6°C 23.2°F-4.9°C 62% 4.3 mph NW6.9 kmh NW 8.1 mph13.0 kmh 29.68 in1005.1 mb 0.00 in0.0 mm 0.00 in0.0 mm 0.00 in0.0 mm
06:38 AM 34.9°F1.6°C 23.2°F-4.9°C 62% 2.2 mph NW3.5 kmh NW 5.8 mph9.3 kmh 29.68 in1005.1 mb 0.00 in0.0 mm 0.00 in0.0 mm 0.00 in0.0 mm
06:37 AM 34.9°F1.6°C 22.8°F-5.1°C 61% 9.6 mph NW15.4 kmh NW 13.6 mph21.9 kmh 29.68 in1005.1 mb 0.00 in0.0 mm 0.00 in0.0 mm 0.00 in0.0 mm
06:36 AM 34.9°F1.6°C 22.8°F-5.1°C 61% 8.7 mph WNW14.0 kmh WNW 10.3 mph16.6 kmh 29.68 in1005.1 mb 0.00 in0.0 mm 0.00 in0.0 mm 0.00 in0.0 mm
06:35 AM 34.9°F1.6°C 22.8°F-5.1°C 61% 6.0 mph WNW9.7 kmh WNW 9.2 mph14.8 kmh 29.67 in1004.7 mb 0.00 in0.0 mm 0.00 in0.0 mm 0.00 in0.0 mm
06:34 AM 34.9°F1.6°C 22.8°F-5.1°C 61% 10.7 mph W17.2 kmh W 13.6 mph21.9 kmh 29.68 in1005.1 mb 0.00 in0.0 mm 0.00 in0.0 mm 0.00 in0.0 mm
06:33 AM 34.9°F1.6°C 22.8°F-5.1°C 61% 4.9 mph NW7.9 kmh NW 8.1 mph13.0 kmh 29.68 in1005.1 mb 0.00 in0.0 mm 0.00 in0.0 mm 0.00 in0.0 mm
06:32 AM 34.9°F1.6°C 22.8°F-5.1°C 61% 3.4 mph NE5.5 kmh NE 8.1 mph13.0 kmh 29.68 in1005.1 mb 0.00 in0.0 mm 0.00 in0.0 mm 0.00 in0.0 mm
06:31 AM 34.9°F1.6°C 22.4°F-5.3°C 60% 6.9 mph NW11.1 kmh NW 10.3 mph16.6 kmh 29.68 in1005.1 mb 0.00 in0.0 mm 0.00 in0.0 mm 0.00 in0.0 mm
06:30 AM 34.9°F1.6°C 22.8°F-5.1°C 61% 6.3 mph NNW10.1 kmh NNW 8.1 mph13.0 kmh 29.68 in1005.1 mb 0.00 in0.0 mm 0.00 in0.0 mm 0.00 in0.0 mm
06:29 AM 34.9°F1.6°C 22.8°F-5.1°C 61% 8.3 mph W13.4 kmh W 11.4 mph18.3 kmh 29.68 in1005.1 mb 0.00 in0.0 mm 0.00 in0.0 mm 0.00 in0.0 mm
06:28 AM 34.9°F1.6°C 22.8°F-5.1°C 61% 5.1 mph W8.2 kmh W 5.8 mph9.3 kmh 29.67 in1004.7 mb 0.00 in0.0 mm 0.00 in0.0 mm 0.00 in0.0 mm
06:27 AM 34.9°F1.6°C 22.8°F-5.1°C 61% 6.9 mph NW11.1 kmh NW 8.1 mph13.0 kmh 29.68 in1005.1 mb 0.00 in0.0 mm 0.00 in0.0 mm 0.00 in0.0 mm
06:26 AM 34.9°F1.6°C 22.8°F-5.1°C 61% 5.6 mph NW9.0 kmh NW 6.9 mph11.1 kmh 29.68 in1005.1 mb 0.00 in0.0 mm 0.00 in0.0 mm 0.00 in0.0 mm
06:25 AM 34.9°F1.6°C 22.8°F-5.1°C 61% 8.1 mph NW13.0 kmh NW 10.3 mph16.6 kmh 29.68 in1005.1 mb 0.00 in0.0 mm 0.00 in0.0 mm 0.00 in0.0 mm
06:24 AM 34.9°F1.6°C 22.8°F-5.1°C 61% 8.5 mph NW13.7 kmh NW 11.4 mph18.3 kmh 29.68 in1005.1 mb 0.00 in0.0 mm 0.00 in0.0 mm 0.00 in0.0 mm
06:23 AM 34.9°F1.6°C 22.8°F-5.1°C 61% 7.2 mph NNW11.6 kmh NNW 9.2 mph14.8 kmh 29.67 in1004.7 mb 0.00 in0.0 mm 0.00 in0.0 mm 0.00 in0.0 mm
06:22 AM 34.9°F1.6°C 22.4°F-5.3°C 60% 7.8 mph WNW12.6 kmh WNW 12.5 mph20.1 kmh 29.68 in1005.1 mb 0.00 in0.0 mm 0.00 in0.0 mm 0.00 in0.0 mm
06:21 AM 34.9°F1.6°C 22.4°F-5.3°C 60% 9.4 mph WNW15.1 kmh WNW 11.4 mph18.3 kmh 29.67 in1004.7 mb 0.00 in0.0 mm 0.00 in0.0 mm 0.00 in0.0 mm
06:20 AM 34.9°F1.6°C 22.8°F-5.1°C 61% 8.1 mph N13.0 kmh N 11.4 mph18.3 kmh 29.68 in1005.1 mb 0.00 in0.0 mm 0.00 in0.0 mm 0.00 in0.0 mm
06:19 AM 34.9°F1.6°C 22.8°F-5.1°C 61% 1.8 mph NW2.9 kmh NW 3.4 mph5.5 kmh 29.68 in1005.1 mb 0.00 in0.0 mm 0.00 in0.0 mm 0.00 in0.0 mm
06:18 AM 34.9°F1.6°C 22.4°F-5.3°C 60% 4.5 mph NW7.2 kmh NW 6.9 mph11.1 kmh 29.68 in1005.1 mb 0.00 in0.0 mm 0.00 in0.0 mm 0.00 in0.0 mm
06:17 AM 34.9°F1.6°C 22.8°F-5.1°C 61% 8.5 mph W13.7 kmh W 9.2 mph14.8 kmh 29.67 in1004.7 mb 0.00 in0.0 mm 0.00 in0.0 mm 0.00 in0.0 mm
06:16 AM 34.9°F1.6°C 22.8°F-5.1°C 61% 2.9 mph N4.7 kmh N 4.5 mph7.2 kmh 29.68 in1005.1 mb 0.00 in0.0 mm 0.00 in0.0 mm 0.00 in0.0 mm
06:15 AM 34.9°F1.6°C 22.4°F-5.3°C 60% 3.8 mph WSW6.1 kmh WSW 5.8 mph9.3 kmh 29.68 in1005.1 mb 0.00 in0.0 mm 0.00 in0.0 mm 0.00 in0.0 mm
06:14 AM 34.9°F1.6°C 22.4°F-5.3°C 60% 5.4 mph WNW8.7 kmh WNW 6.9 mph11.1 kmh 29.67 in1004.7 mb 0.00 in0.0 mm 0.00 in0.0 mm 0.00 in0.0 mm
06:13 AM 34.9°F1.6°C 22.4°F-5.3°C 60% 9.6 mph WNW15.4 kmh WNW 12.5 mph20.1 kmh 29.67 in1004.7 mb 0.00 in0.0 mm 0.00 in0.0 mm 0.00 in0.0 mm
06:12 AM 34.9°F1.6°C 22.8°F-5.1°C 61% 4.9 mph WNW7.9 kmh WNW 10.3 mph16.6 kmh 29.67 in1004.7 mb 0.00 in0.0 mm 0.00 in0.0 mm 0.00 in0.0 mm
06:11 AM 34.9°F1.6°C 22.8°F-5.1°C 61% 3.4 mph NNW5.5 kmh NNW 4.5 mph7.2 kmh 29.68 in1005.1 mb 0.00 in0.0 mm 0.00 in0.0 mm 0.00 in0.0 mm
06:10 AM 34.7°F1.5°C 22.6°F-5.2°C 61% 6.0 mph NW9.7 kmh NW 8.1 mph13.0 kmh 29.67 in1004.7 mb 0.00 in0.0 mm 0.00 in0.0 mm 0.00 in0.0 mm
06:09 AM 34.7°F1.5°C 22.6°F-5.2°C 61% 11.6 mph NW18.7 kmh NW 14.8 mph23.8 kmh 29.67 in1004.7 mb 0.00 in0.0 mm 0.00 in0.0 mm 0.00 in0.0 mm
06:08 AM 34.7°F1.5°C 22.6°F-5.2°C 61% 8.7 mph WNW14.0 kmh WNW 11.4 mph18.3 kmh 29.66 in1004.4 mb 0.00 in0.0 mm 0.00 in0.0 mm 0.00 in0.0 mm
06:07 AM 34.7°F1.5°C 22.3°F-5.4°C 60% 7.6 mph NW12.2 kmh NW 12.5 mph20.1 kmh 29.66 in1004.4 mb 0.00 in0.0 mm 0.00 in0.0 mm 0.00 in0.0 mm
06:06 AM 34.7°F1.5°C 22.6°F-5.2°C 61% 5.4 mph NW8.7 kmh NW 8.1 mph13.0 kmh 29.66 in1004.4 mb 0.00 in0.0 mm 0.00 in0.0 mm 0.00 in0.0 mm
06:05 AM 34.9°F1.6°C 22.8°F-5.1°C 61% 4.9 mph WSW7.9 kmh WSW 5.8 mph9.3 kmh 29.67 in1004.7 mb 0.00 in0.0 mm 0.00 in0.0 mm 0.00 in0.0 mm
06:04 AM 34.9°F1.6°C 22.4°F-5.3°C 60% 8.5 mph NW13.7 kmh NW 11.4 mph18.3 kmh 29.67 in1004.7 mb 0.00 in0.0 mm 0.00 in0.0 mm 0.00 in0.0 mm
06:03 AM 34.9°F1.6°C 22.4°F-5.3°C 60% 11.6 mph NW18.7 kmh NW 14.8 mph23.8 kmh 29.66 in1004.4 mb 0.00 in0.0 mm 0.00 in0.0 mm 0.00 in0.0 mm
06:02 AM 34.7°F1.5°C 22.3°F-5.4°C 60% 6.3 mph NW10.1 kmh NW 8.1 mph13.0 kmh 29.67 in1004.7 mb 0.00 in0.0 mm 0.00 in0.0 mm 0.00 in0.0 mm
06:01 AM 34.7°F1.5°C 22.3°F-5.4°C 60% 10.3 mph NW16.6 kmh NW 14.8 mph23.8 kmh 29.66 in1004.4 mb 0.00 in0.0 mm 0.00 in0.0 mm 0.00 in0.0 mm
06:00 AM 34.7°F1.5°C 22.6°F-5.2°C 61% 9.4 mph WSW15.1 kmh WSW 12.5 mph20.1 kmh 29.66 in1004.4 mb 0.00 in0.0 mm 0.00 in0.0 mm 0.00 in0.0 mm
05:59 AM 34.7°F1.5°C 22.6°F-5.2°C 61% 6.9 mph W11.1 kmh W 9.2 mph14.8 kmh 29.66 in1004.4 mb 0.00 in0.0 mm 0.00 in0.0 mm 0.00 in0.0 mm
05:58 AM 34.7°F1.5°C 22.6°F-5.2°C 61% 6.7 mph NW10.8 kmh NW 10.3 mph16.6 kmh 29.66 in1004.4 mb 0.00 in0.0 mm 0.00 in0.0 mm 0.00 in0.0 mm
05:57 AM 34.7°F1.5°C 22.6°F-5.2°C 61% 3.4 mph WSW5.5 kmh WSW 5.8 mph9.3 kmh 29.66 in1004.4 mb 0.00 in0.0 mm 0.00 in0.0 mm 0.00 in0.0 mm
05:56 AM 34.9°F1.6°C 22.8°F-5.1°C 61% 11.2 mph NW18.0 kmh NW 13.6 mph21.9 kmh 29.66 in1004.4 mb 0.00 in0.0 mm 0.00 in0.0 mm 0.00 in0.0 mm
05:55 AM 34.7°F1.5°C 22.3°F-5.4°C 60% 5.4 mph W8.7 kmh W 9.2 mph14.8 kmh 29.66 in1004.4 mb 0.00 in0.0 mm 0.00 in0.0 mm 0.00 in0.0 mm
05:54 AM 34.7°F1.5°C 22.3°F-5.4°C 60% 11.6 mph WNW18.7 kmh WNW 14.8 mph23.8 kmh 29.66 in1004.4 mb 0.00 in0.0 mm 0.00 in0.0 mm 0.00 in0.0 mm
05:53 AM 34.9°F1.6°C 22.8°F-5.1°C 61% 10.3 mph NNW16.6 kmh NNW 12.5 mph20.1 kmh 29.66 in1004.4 mb 0.00 in0.0 mm 0.00 in0.0 mm 0.00 in0.0 mm
05:52 AM 34.9°F1.6°C 22.8°F-5.1°C 61% 3.8 mph N6.1 kmh N 5.8 mph9.3 kmh 29.66 in1004.4 mb 0.00 in0.0 mm 0.00 in0.0 mm 0.00 in0.0 mm
05:51 AM 34.7°F1.5°C 22.3°F-5.4°C 60% 4.9 mph WNW7.9 kmh WNW 8.1 mph13.0 kmh 29.66 in1004.4 mb 0.00 in0.0 mm 0.00 in0.0 mm 0.00 in0.0 mm
05:50 AM 34.7°F1.5°C 22.3°F-5.4°C 60% 10.1 mph NW16.3 kmh NW 12.5 mph20.1 kmh 29.66 in1004.4 mb 0.00 in0.0 mm 0.00 in0.0 mm 0.00 in0.0 mm
05:49 AM 34.7°F1.5°C 22.6°F-5.2°C 61% 7.8 mph NW12.6 kmh NW 9.2 mph14.8 kmh 29.66 in1004.4 mb 0.00 in0.0 mm 0.00 in0.0 mm 0.00 in0.0 mm
05:48 AM 34.7°F1.5°C 22.6°F-5.2°C 61% 4.0 mph NNW6.4 kmh NNW 5.8 mph9.3 kmh 29.66 in1004.4 mb 0.00 in0.0 mm 0.00 in0.0 mm 0.00 in0.0 mm
05:47 AM 34.7°F1.5°C 22.6°F-5.2°C 61% 7.6 mph WNW12.2 kmh WNW 12.5 mph20.1 kmh 29.65 in1004.1 mb 0.00 in0.0 mm 0.00 in0.0 mm 0.00 in0.0 mm
05:46 AM 34.7°F1.5°C 22.6°F-5.2°C 61% 7.8 mph NW12.6 kmh NW 9.2 mph14.8 kmh 29.65 in1004.1 mb 0.00 in0.0 mm 0.00 in0.0 mm 0.00 in0.0 mm
05:45 AM 34.9°F1.6°C 22.8°F-5.1°C 61% 5.1 mph N8.2 kmh N 6.9 mph11.1 kmh 29.65 in1004.1 mb 0.00 in0.0 mm 0.00 in0.0 mm 0.00 in0.0 mm
05:44 AM 34.9°F1.6°C 22.8°F-5.1°C 61% 4.0 mph W6.4 kmh W 5.8 mph9.3 kmh 29.65 in1004.1 mb 0.00 in0.0 mm 0.00 in0.0 mm 0.00 in0.0 mm
05:43 AM 34.7°F1.5°C 22.6°F-5.2°C 61% 10.1 mph WNW16.3 kmh WNW 14.8 mph23.8 kmh 29.66 in1004.4 mb 0.00 in0.0 mm 0.00 in0.0 mm 0.00 in0.0 mm
05:42 AM 34.9°F1.6°C 22.8°F-5.1°C 61% 9.2 mph NW14.8 kmh NW 12.5 mph20.1 kmh 29.65 in1004.1 mb 0.00 in0.0 mm 0.00 in0.0 mm 0.00 in0.0 mm
05:41 AM 34.9°F1.6°C 22.8°F-5.1°C 61% 4.7 mph WNW7.6 kmh WNW 5.8 mph9.3 kmh 29.65 in1004.1 mb 0.00 in0.0 mm 0.00 in0.0 mm 0.00 in0.0 mm
05:40 AM 34.9°F1.6°C 22.8°F-5.1°C 61% 2.9 mph WNW4.7 kmh WNW 3.4 mph5.5 kmh 29.65 in1004.1 mb 0.00 in0.0 mm 0.00 in0.0 mm 0.00 in0.0 mm
05:39 AM 34.9°F1.6°C 22.8°F-5.1°C 61% 6.9 mph W11.1 kmh W 11.4 mph18.3 kmh 29.65 in1004.1 mb 0.00 in0.0 mm 0.00 in0.0 mm 0.00 in0.0 mm
05:38 AM 34.9°F1.6°C 22.4°F-5.3°C 60% 5.1 mph WNW8.2 kmh WNW 8.1 mph13.0 kmh 29.65 in1004.1 mb 0.00 in0.0 mm 0.00 in0.0 mm 0.00 in0.0 mm
05:37 AM 34.9°F1.6°C 22.4°F-5.3°C 60% 9.2 mph NW14.8 kmh NW 10.3 mph16.6 kmh 29.65 in1004.1 mb 0.00 in0.0 mm 0.00 in0.0 mm 0.00 in0.0 mm
05:36 AM 34.9°F1.6°C 22.4°F-5.3°C 60% 8.5 mph NW13.7 kmh NW 13.6 mph21.9 kmh 29.65 in1004.1 mb 0.00 in0.0 mm 0.00 in0.0 mm 0.00 in0.0 mm
05:35 AM 34.7°F1.5°C 22.3°F-5.4°C 60% 6.3 mph WNW10.1 kmh WNW 8.1 mph13.0 kmh 29.65 in1004.1 mb 0.00 in0.0 mm 0.00 in0.0 mm 0.00 in0.0 mm
05:34 AM 34.7°F1.5°C 22.3°F-5.4°C 60% 10.1 mph WNW16.3 kmh WNW 12.5 mph20.1 kmh 29.65 in1004.1 mb 0.00 in0.0 mm 0.00 in0.0 mm 0.00 in0.0 mm
05:33 AM 34.7°F1.5°C 22.6°F-5.2°C 61% 7.4 mph NW11.9 kmh NW 11.4 mph18.3 kmh 29.65 in1004.1 mb 0.00 in0.0 mm 0.00 in0.0 mm 0.00 in0.0 mm
05:32 AM 34.7°F1.5°C 22.6°F-5.2°C 61% 7.2 mph W11.6 kmh W 10.3 mph16.6 kmh 29.65 in1004.1 mb 0.00 in0.0 mm 0.00 in0.0 mm 0.00 in0.0 mm
05:31 AM 34.7°F1.5°C 22.6°F-5.2°C 61% 4.9 mph NW7.9 kmh NW 6.9 mph11.1 kmh 29.65 in1004.1 mb 0.00 in0.0 mm 0.00 in0.0 mm 0.00 in0.0 mm
05:30 AM 34.7°F1.5°C 22.6°F-5.2°C 61% 9.4 mph NW15.1 kmh NW 14.8 mph23.8 kmh 29.65 in1004.1 mb 0.00 in0.0 mm 0.00 in0.0 mm 0.00 in0.0 mm
05:29 AM 34.9°F1.6°C 23.2°F-4.9°C 62% 8.1 mph NW13.0 kmh NW 11.4 mph18.3 kmh 29.65 in1004.1 mb 0.00 in0.0 mm 0.00 in0.0 mm 0.00 in0.0 mm
05:28 AM 34.9°F1.6°C 23.2°F-4.9°C 62% 6.5 mph W10.5 kmh W 8.1 mph13.0 kmh 29.65 in1004.1 mb 0.00 in0.0 mm 0.00 in0.0 mm 0.00 in0.0 mm
05:27 AM 34.9°F1.6°C 22.8°F-5.1°C 61% 4.0 mph W6.4 kmh W 4.5 mph7.2 kmh 29.65 in1004.1 mb 0.00 in0.0 mm 0.00 in0.0 mm 0.00 in0.0 mm
05:26 AM 34.9°F1.6°C 22.8°F-5.1°C 61% 5.4 mph NW8.7 kmh NW 6.9 mph11.1 kmh 29.65 in1004.1 mb 0.00 in0.0 mm 0.00 in0.0 mm 0.00 in0.0 mm
05:25 AM 34.9°F1.6°C 22.8°F-5.1°C 61% 8.5 mph W13.7 kmh W 12.5 mph20.1 kmh 29.65 in1004.1 mb 0.00 in0.0 mm 0.00 in0.0 mm 0.00 in0.0 mm
05:24 AM 34.9°F1.6°C 22.8°F-5.1°C 61% 5.8 mph NW9.3 kmh NW 8.1 mph13.0 kmh 29.65 in1004.1 mb 0.00 in0.0 mm 0.00 in0.0 mm 0.00 in0.0 mm
05:23 AM 34.9°F1.6°C 22.8°F-5.1°C 61% 8.9 mph SW14.3 kmh SW 12.5 mph20.1 kmh 29.65 in1004.1 mb 0.00 in0.0 mm 0.00 in0.0 mm 0.00 in0.0 mm
05:22 AM 34.9°F1.6°C 22.8°F-5.1°C 61% 6.7 mph WNW10.8 kmh WNW 9.2 mph14.8 kmh 29.65 in1004.1 mb 0.00 in0.0 mm 0.00 in0.0 mm 0.00 in0.0 mm
05:21 AM 34.9°F1.6°C 22.8°F-5.1°C 61% 6.7 mph NNW10.8 kmh NNW 12.5 mph20.1 kmh 29.64 in1003.7 mb 0.00 in0.0 mm 0.00 in0.0 mm 0.00 in0.0 mm
05:20 AM 34.9°F1.6°C 22.8°F-5.1°C 61% 8.9 mph NW14.3 kmh NW 12.5 mph20.1 kmh 29.64 in1003.7 mb 0.00 in0.0 mm 0.00 in0.0 mm 0.00 in0.0 mm
05:19 AM 34.9°F1.6°C 23.2°F-4.9°C 62% 4.3 mph NW6.9 kmh NW 6.9 mph11.1 kmh 29.65 in1004.1 mb 0.00 in0.0 mm 0.00 in0.0 mm 0.00 in0.0 mm
05:18 AM 34.9°F1.6°C 22.8°F-5.1°C 61% 6.3 mph NW10.1 kmh NW 8.1 mph13.0 kmh 29.64 in1003.7 mb 0.00 in0.0 mm 0.00 in0.0 mm 0.00 in0.0 mm
05:17 AM 34.9°F1.6°C 22.8°F-5.1°C 61% 3.4 mph WNW5.5 kmh WNW 4.5 mph7.2 kmh 29.64 in1003.7 mb 0.00 in0.0 mm 0.00 in0.0 mm 0.00 in0.0 mm
05:16 AM 34.9°F1.6°C 22.8°F-5.1°C 61% 5.6 mph SE9.0 kmh SE 8.1 mph13.0 kmh 29.64 in1003.7 mb 0.00 in0.0 mm 0.00 in0.0 mm 0.00 in0.0 mm
05:15 AM 34.9°F1.6°C 22.8°F-5.1°C 61% 6.3 mph NW10.1 kmh NW 8.1 mph13.0 kmh 29.65 in1004.1 mb 0.00 in0.0 mm 0.00 in0.0 mm 0.00 in0.0 mm
05:14 AM 34.9°F1.6°C 22.8°F-5.1°C 61% 10.1 mph NNW16.3 kmh NNW 12.5 mph20.1 kmh 29.64 in1003.7 mb 0.00 in0.0 mm 0.00 in0.0 mm 0.00 in0.0 mm
05:13 AM 34.9°F1.6°C 22.8°F-5.1°C 61% 6.9 mph NW11.1 kmh NW 12.5 mph20.1 kmh 29.64 in1003.7 mb 0.00 in0.0 mm 0.00 in0.0 mm 0.00 in0.0 mm
05:12 AM 34.9°F1.6°C 22.8°F-5.1°C 61% 8.1 mph NNW13.0 kmh NNW 10.3 mph16.6 kmh 29.64 in1003.7 mb 0.00 in0.0 mm 0.00 in0.0 mm 0.00 in0.0 mm
05:11 AM 34.9°F1.6°C 22.8°F-5.1°C 61% 8.5 mph WNW13.7 kmh WNW 12.5 mph20.1 kmh 29.64 in1003.7 mb 0.00 in0.0 mm 0.00 in0.0 mm 0.00 in0.0 mm
05:10 AM 34.9°F1.6°C 22.8°F-5.1°C 61% 9.2 mph WNW14.8 kmh WNW 11.4 mph18.3 kmh 29.64 in1003.7 mb 0.00 in0.0 mm 0.00 in0.0 mm 0.00 in0.0 mm
05:09 AM 34.9°F1.6°C 22.4°F-5.3°C 60% 10.1 mph W16.3 kmh W 12.5 mph20.1 kmh 29.64 in1003.7 mb 0.00 in0.0 mm 0.00 in0.0 mm 0.00 in0.0 mm
05:08 AM 34.9°F1.6°C 22.8°F-5.1°C 61% 6.5 mph NW10.5 kmh NW 11.4 mph18.3 kmh 29.63 in1003.4 mb 0.00 in0.0 mm 0.00 in0.0 mm 0.00 in0.0 mm
05:07 AM 34.9°F1.6°C 22.8°F-5.1°C 61% 12.8 mph WNW20.6 kmh WNW 17.2 mph27.7 kmh 29.64 in1003.7 mb 0.00 in0.0 mm 0.00 in0.0 mm 0.00 in0.0 mm
05:06 AM 34.9°F1.6°C 22.8°F-5.1°C 61% 9.2 mph NW14.8 kmh NW 11.4 mph18.3 kmh 29.63 in1003.4 mb 0.00 in0.0 mm 0.00 in0.0 mm 0.00 in0.0 mm
05:05 AM 34.9°F1.6°C 22.8°F-5.1°C 61% 10.1 mph NW16.3 kmh NW 13.6 mph21.9 kmh 29.64 in1003.7 mb 0.00 in0.0 mm 0.00 in0.0 mm 0.00 in0.0 mm
05:04 AM 34.9°F1.6°C 22.8°F-5.1°C 61% 6.0 mph WNW9.7 kmh WNW 9.2 mph14.8 kmh 29.64 in1003.7 mb 0.00 in0.0 mm 0.00 in0.0 mm 0.00 in0.0 mm
05:03 AM 34.9°F1.6°C 23.2°F-4.9°C 62% 4.9 mph WNW7.9 kmh WNW 5.8 mph9.3 kmh 29.63 in1003.4 mb 0.00 in0.0 mm 0.00 in0.0 mm 0.00 in0.0 mm
05:02 AM 34.9°F1.6°C 22.8°F-5.1°C 61% 4.7 mph NW7.6 kmh NW 8.1 mph13.0 kmh 29.64 in1003.7 mb 0.00 in0.0 mm 0.00 in0.0 mm 0.00 in0.0 mm
05:01 AM 34.9°F1.6°C 22.8°F-5.1°C 61% 4.3 mph WNW6.9 kmh WNW 5.8 mph9.3 kmh 29.64 in1003.7 mb 0.00 in0.0 mm 0.00 in0.0 mm 0.00 in0.0 mm
05:00 AM 34.9°F1.6°C 23.2°F-4.9°C 62% 6.5 mph WSW10.5 kmh WSW 9.2 mph14.8 kmh 29.64 in1003.7 mb 0.00 in0.0 mm 0.00 in0.0 mm 0.00 in0.0 mm
04:59 AM 34.9°F1.6°C 22.8°F-5.1°C 61% 6.5 mph WNW10.5 kmh WNW 9.2 mph14.8 kmh 29.63 in1003.4 mb 0.00 in0.0 mm 0.00 in0.0 mm 0.00 in0.0 mm
04:58 AM 35.1°F1.7°C 23.0°F-5.0°C 61% 8.9 mph NW14.3 kmh NW 10.3 mph16.6 kmh 29.63 in1003.4 mb 0.00 in0.0 mm 0.00 in0.0 mm 0.00 in0.0 mm
04:57 AM 35.1°F1.7°C 23.4°F-4.8°C 62% 4.7 mph NW7.6 kmh NW 5.8 mph9.3 kmh 29.63 in1003.4 mb 0.00 in0.0 mm 0.00 in0.0 mm 0.00 in0.0 mm
04:56 AM 35.1°F1.7°C 23.0°F-5.0°C 61% 6.0 mph S9.7 kmh S 9.2 mph14.8 kmh 29.63 in1003.4 mb 0.00 in0.0 mm 0.00 in0.0 mm 0.00 in0.0 mm
04:55 AM 34.9°F1.6°C 22.8°F-5.1°C 61% 8.7 mph NNW14.0 kmh NNW 11.4 mph18.3 kmh 29.63 in1003.4 mb 0.00 in0.0 mm 0.00 in0.0 mm 0.00 in0.0 mm
04:54 AM 35.1°F1.7°C 23.0°F-5.0°C 61% 6.7 mph WNW10.8 kmh WNW 8.1 mph13.0 kmh 29.63 in1003.4 mb 0.00 in0.0 mm 0.00 in0.0 mm 0.00 in0.0 mm
04:53 AM 35.1°F1.7°C 23.4°F-4.8°C 62% 5.6 mph NW9.0 kmh NW 8.1 mph13.0 kmh 29.63 in1003.4 mb 0.00 in0.0 mm 0.00 in0.0 mm 0.00 in0.0 mm
04:52 AM 35.1°F1.7°C 23.0°F-5.0°C 61% 4.3 mph NW6.9 kmh NW 5.8 mph9.3 kmh 29.63 in1003.4 mb 0.00 in0.0 mm 0.00 in0.0 mm 0.00 in0.0 mm
04:51 AM 35.1°F1.7°C 23.0°F-5.0°C 61% 3.1 mph NNW5.0 kmh NNW 5.8 mph9.3 kmh 29.63 in1003.4 mb 0.00 in0.0 mm 0.00 in0.0 mm 0.00 in0.0 mm
04:50 AM 35.1°F1.7°C 23.0°F-5.0°C 61% 3.8 mph NW6.1 kmh NW 5.8 mph9.3 kmh 29.63 in1003.4 mb 0.00 in0.0 mm 0.00 in0.0 mm 0.00 in0.0 mm
04:49 AM 35.1°F1.7°C 23.0°F-5.0°C 61% 7.8 mph WNW12.6 kmh WNW 10.3 mph16.6 kmh 29.63 in1003.4 mb 0.00 in0.0 mm 0.00 in0.0 mm 0.00 in0.0 mm
04:48 AM 35.1°F1.7°C 23.0°F-5.0°C 61% 6.3 mph W10.1 kmh W 11.4 mph18.3 kmh 29.63 in1003.4 mb 0.00 in0.0 mm 0.00 in0.0 mm 0.00 in0.0 mm
04:47 AM 35.1°F1.7°C 22.6°F-5.2°C 60% 6.5 mph W10.5 kmh W 9.2 mph14.8 kmh 29.62 in1003.0 mb 0.00 in0.0 mm 0.00 in0.0 mm 0.00 in0.0 mm
04:46 AM 35.1°F1.7°C 22.6°F-5.2°C 60% 5.8 mph NE9.3 kmh NE 9.2 mph14.8 kmh 29.63 in1003.4 mb 0.00 in0.0 mm 0.00 in0.0 mm 0.00 in0.0 mm
04:45 AM 35.1°F1.7°C 22.6°F-5.2°C 60% 9.6 mph S15.4 kmh S 12.5 mph20.1 kmh 29.63 in1003.4 mb 0.00 in0.0 mm 0.00 in0.0 mm 0.00 in0.0 mm
04:44 AM 35.1°F1.7°C 22.6°F-5.2°C 60% 6.5 mph NW10.5 kmh NW 10.3 mph16.6 kmh 29.63 in1003.4 mb 0.00 in0.0 mm 0.00 in0.0 mm 0.00 in0.0 mm
04:43 AM 35.1°F1.7°C 22.6°F-5.2°C 60% 7.4 mph NW11.9 kmh NW 8.1 mph13.0 kmh 29.62 in1003.0 mb 0.00 in0.0 mm 0.00 in0.0 mm 0.00 in0.0 mm
04:42 AM 35.1°F1.7°C 22.6°F-5.2°C 60% 7.8 mph WNW12.6 kmh WNW 9.2 mph14.8 kmh 29.63 in1003.4 mb 0.00 in0.0 mm 0.00 in0.0 mm 0.00 in0.0 mm
04:41 AM 35.1°F1.7°C 22.6°F-5.2°C 60% 3.4 mph NW5.5 kmh NW 4.5 mph7.2 kmh 29.62 in1003.0 mb 0.00 in0.0 mm 0.00 in0.0 mm 0.00 in0.0 mm
04:40 AM 35.1°F1.7°C 22.6°F-5.2°C 60% 4.5 mph N7.2 kmh N 5.8 mph9.3 kmh 29.63 in1003.4 mb 0.00 in0.0 mm 0.00 in0.0 mm 0.00 in0.0 mm
04:39 AM 35.1°F1.7°C 22.6°F-5.2°C 60% 9.6 mph WNW15.4 kmh WNW 12.5 mph20.1 kmh 29.62 in1003.0 mb 0.00 in0.0 mm 0.00 in0.0 mm 0.00 in0.0 mm
04:38 AM 35.1°F1.7°C 22.6°F-5.2°C 60% 12.1 mph WNW19.5 kmh WNW 14.8 mph23.8 kmh 29.62 in1003.0 mb 0.00 in0.0 mm 0.00 in0.0 mm 0.00 in0.0 mm
04:37 AM 35.1°F1.7°C 22.6°F-5.2°C 60% 8.5 mph NW13.7 kmh NW 10.3 mph16.6 kmh 29.62 in1003.0 mb 0.00 in0.0 mm 0.00 in0.0 mm 0.00 in0.0 mm
04:36 AM 35.1°F1.7°C 22.6°F-5.2°C 60% 10.3 mph NW16.6 kmh NW 12.5 mph20.1 kmh 29.63 in1003.4 mb 0.00 in0.0 mm 0.00 in0.0 mm 0.00 in0.0 mm
04:35 AM 35.2°F1.8°C 22.7°F-5.2°C 60% 8.5 mph W13.7 kmh W 12.5 mph20.1 kmh 29.63 in1003.4 mb 0.00 in0.0 mm 0.00 in0.0 mm 0.00 in0.0 mm
04:34 AM 35.2°F1.8°C 22.7°F-5.2°C 60% 6.5 mph NW10.5 kmh NW 9.2 mph14.8 kmh 29.61 in1002.7 mb 0.00 in0.0 mm 0.00 in0.0 mm 0.00 in0.0 mm
04:33 AM 35.1°F1.7°C 23.0°F-5.0°C 61% 7.6 mph NW12.2 kmh NW 10.3 mph16.6 kmh 29.62 in1003.0 mb 0.00 in0.0 mm 0.00 in0.0 mm 0.00 in0.0 mm
04:32 AM 35.1°F1.7°C 23.0°F-5.0°C 61% 11.2 mph NW18.0 kmh NW 12.5 mph20.1 kmh 29.61 in1002.7 mb 0.00 in0.0 mm 0.00 in0.0 mm 0.00 in0.0 mm
04:31 AM 35.1°F1.7°C 23.0°F-5.0°C 61% 6.0 mph E9.7 kmh E 10.3 mph16.6 kmh 29.62 in1003.0 mb 0.00 in0.0 mm 0.00 in0.0 mm 0.00 in0.0 mm
04:30 AM 35.1°F1.7°C 23.0°F-5.0°C 61% 8.9 mph NW14.3 kmh NW 10.3 mph16.6 kmh 29.62 in1003.0 mb 0.00 in0.0 mm 0.00 in0.0 mm 0.00 in0.0 mm
04:29 AM 35.1°F1.7°C 23.0°F-5.0°C 61% 5.4 mph NW8.7 kmh NW 6.9 mph11.1 kmh 29.62 in1003.0 mb 0.00 in0.0 mm 0.00 in0.0 mm 0.00 in0.0 mm
04:28 AM 35.1°F1.7°C 23.0°F-5.0°C 61% 9.2 mph WNW14.8 kmh WNW 10.3 mph16.6 kmh 29.62 in1003.0 mb 0.00 in0.0 mm 0.00 in0.0 mm 0.00 in0.0 mm
04:27 AM 35.2°F1.8°C 23.1°F-4.9°C 61% 8.3 mph SW13.4 kmh SW 12.5 mph20.1 kmh 29.62 in1003.0 mb 0.00 in0.0 mm 0.00 in0.0 mm 0.00 in0.0 mm
04:26 AM 35.2°F1.8°C 23.1°F-4.9°C 61% 6.9 mph WNW11.1 kmh WNW 10.3 mph16.6 kmh 29.62 in1003.0 mb 0.00 in0.0 mm 0.00 in0.0 mm 0.00 in0.0 mm
04:25 AM 35.2°F1.8°C 23.1°F-4.9°C 61% 8.1 mph NW13.0 kmh NW 11.4 mph18.3 kmh 29.63 in1003.4 mb 0.00 in0.0 mm 0.00 in0.0 mm 0.00 in0.0 mm
04:24 AM 35.2°F1.8°C 23.1°F-4.9°C 61% 8.1 mph NW13.0 kmh NW 11.4 mph18.3 kmh 29.62 in1003.0 mb 0.00 in0.0 mm 0.00 in0.0 mm 0.00 in0.0 mm
04:23 AM 35.2°F1.8°C 23.1°F-4.9°C 61% 8.1 mph NW13.0 kmh NW 11.4 mph18.3 kmh 29.61 in1002.7 mb 0.00 in0.0 mm 0.00 in0.0 mm 0.00 in0.0 mm
04:22 AM 35.2°F1.8°C 23.1°F-4.9°C 61% 11.6 mph W18.7 kmh W 14.8 mph23.8 kmh 29.62 in1003.0 mb 0.00 in0.0 mm 0.00 in0.0 mm 0.00 in0.0 mm
04:21 AM 35.2°F1.8°C 23.1°F-4.9°C 61% 8.5 mph W13.7 kmh W 11.4 mph18.3 kmh 29.61 in1002.7 mb 0.00 in0.0 mm 0.00 in0.0 mm 0.00 in0.0 mm
04:20 AM 35.2°F1.8°C 23.1°F-4.9°C 61% 8.5 mph NW13.7 kmh NW 10.3 mph16.6 kmh 29.62 in1003.0 mb 0.00 in0.0 mm 0.00 in0.0 mm 0.00 in0.0 mm
04:19 AM 35.2°F1.8°C 23.1°F-4.9°C 61% 7.4 mph NW11.9 kmh NW 8.1 mph13.0 kmh 29.62 in1003.0 mb 0.00 in0.0 mm 0.00 in0.0 mm 0.00 in0.0 mm
04:18 AM 35.2°F1.8°C 23.1°F-4.9°C 61% 3.1 mph NW5.0 kmh NW 3.4 mph5.5 kmh 29.62 in1003.0 mb 0.00 in0.0 mm 0.00 in0.0 mm 0.00 in0.0 mm
04:17 AM 35.2°F1.8°C 23.1°F-4.9°C 61% 5.8 mph NW9.3 kmh NW 6.9 mph11.1 kmh 29.61 in1002.7 mb 0.00 in0.0 mm 0.00 in0.0 mm 0.00 in0.0 mm
04:16 AM 35.2°F1.8°C 23.1°F-4.9°C 61% 7.4 mph W11.9 kmh W 9.2 mph14.8 kmh 29.61 in1002.7 mb 0.00 in0.0 mm 0.00 in0.0 mm 0.00 in0.0 mm
04:15 AM 35.2°F1.8°C 23.1°F-4.9°C 61% 7.4 mph WNW11.9 kmh WNW 11.4 mph18.3 kmh 29.61 in1002.7 mb 0.00 in0.0 mm 0.00 in0.0 mm 0.00 in0.0 mm
04:14 AM 35.2°F1.8°C 23.1°F-4.9°C 61% 10.1 mph W16.3 kmh W 11.4 mph18.3 kmh 29.62 in1003.0 mb 0.00 in0.0 mm 0.00 in0.0 mm 0.00 in0.0 mm
04:13 AM 35.2°F1.8°C 23.1°F-4.9°C 61% 5.4 mph WNW8.7 kmh WNW 6.9 mph11.1 kmh 29.61 in1002.7 mb 0.00 in0.0 mm 0.00 in0.0 mm 0.00 in0.0 mm
04:12 AM 35.4°F1.9°C 23.3°F-4.8°C 61% 6.0 mph NW9.7 kmh NW 8.1 mph13.0 kmh 29.61 in1002.7 mb 0.00 in0.0 mm 0.00 in0.0 mm 0.00 in0.0 mm
04:11 AM 35.4°F1.9°C 23.3°F-4.8°C 61% 6.5 mph WNW10.5 kmh WNW 9.2 mph14.8 kmh 29.61 in1002.7 mb 0.00 in0.0 mm 0.00 in0.0 mm 0.00 in0.0 mm
04:10 AM 35.4°F1.9°C 23.7°F-4.6°C 62% 7.8 mph WSW12.6 kmh WSW 10.3 mph16.6 kmh 29.62 in1003.0 mb 0.00 in0.0 mm 0.00 in0.0 mm 0.00 in0.0 mm
04:09 AM 35.4°F1.9°C 23.3°F-4.8°C 61% 2.9 mph NE4.7 kmh NE 4.5 mph7.2 kmh 29.61 in1002.7 mb 0.00 in0.0 mm 0.00 in0.0 mm 0.00 in0.0 mm
04:08 AM 35.4°F1.9°C 23.3°F-4.8°C 61% 10.1 mph NW16.3 kmh NW 12.5 mph20.1 kmh 29.61 in1002.7 mb 0.00 in0.0 mm 0.00 in0.0 mm 0.00 in0.0 mm
04:07 AM 35.4°F1.9°C 23.3°F-4.8°C 61% 9.4 mph WNW15.1 kmh WNW 12.5 mph20.1 kmh 29.61 in1002.7 mb 0.00 in0.0 mm 0.00 in0.0 mm 0.00 in0.0 mm
04:06 AM 35.4°F1.9°C 23.7°F-4.6°C 62% 5.4 mph NW8.7 kmh NW 6.9 mph11.1 kmh 29.61 in1002.7 mb 0.00 in0.0 mm 0.00 in0.0 mm 0.00 in0.0 mm
04:05 AM 35.2°F1.8°C 23.1°F-4.9°C 61% 4.0 mph NW6.4 kmh NW 5.8 mph9.3 kmh 29.60 in1002.4 mb 0.00 in0.0 mm 0.00 in0.0 mm 0.00 in0.0 mm
04:04 AM 35.2°F1.8°C 23.1°F-4.9°C 61% 9.2 mph NW14.8 kmh NW 15.9 mph25.6 kmh 29.61 in1002.7 mb 0.00 in0.0 mm 0.00 in0.0 mm 0.00 in0.0 mm
04:03 AM 35.2°F1.8°C 23.5°F-4.7°C 62% 10.1 mph WNW16.3 kmh WNW 13.6 mph21.9 kmh 29.61 in1002.7 mb 0.00 in0.0 mm 0.00 in0.0 mm 0.00 in0.0 mm
04:02 AM 35.2°F1.8°C 23.5°F-4.7°C 62% 4.3 mph WSW6.9 kmh WSW 5.8 mph9.3 kmh 29.61 in1002.7 mb 0.00 in0.0 mm 0.00 in0.0 mm 0.00 in0.0 mm
04:01 AM 35.2°F1.8°C 23.5°F-4.7°C 62% 8.1 mph W13.0 kmh W 10.3 mph16.6 kmh 29.61 in1002.7 mb 0.00 in0.0 mm 0.00 in0.0 mm 0.00 in0.0 mm
04:00 AM 35.2°F1.8°C 23.5°F-4.7°C 62% 7.2 mph NW11.6 kmh NW 10.3 mph16.6 kmh 29.60 in1002.4 mb 0.00 in0.0 mm 0.00 in0.0 mm 0.00 in0.0 mm
03:59 AM 35.2°F1.8°C 23.5°F-4.7°C 62% 11.2 mph NW18.0 kmh NW 14.8 mph23.8 kmh 29.61 in1002.7 mb 0.00 in0.0 mm 0.00 in0.0 mm 0.00 in0.0 mm
03:58 AM 35.2°F1.8°C 23.5°F-4.7°C 62% 4.7 mph WNW7.6 kmh WNW 6.9 mph11.1 kmh 29.61 in1002.7 mb 0.00 in0.0 mm 0.00 in0.0 mm 0.00 in0.0 mm
03:57 AM 35.2°F1.8°C 23.5°F-4.7°C 62% 9.8 mph NW15.8 kmh NW 11.4 mph18.3 kmh 29.61 in1002.7 mb 0.00 in0.0 mm 0.00 in0.0 mm 0.00 in0.0 mm
03:56 AM 35.2°F1.8°C 23.5°F-4.7°C 62% 13.6 mph NW21.9 kmh NW 17.2 mph27.7 kmh 29.61 in1002.7 mb 0.00 in0.0 mm 0.00 in0.0 mm 0.00 in0.0 mm
03:55 AM 35.2°F1.8°C 23.5°F-4.7°C 62% 6.9 mph NW11.1 kmh NW 8.1 mph13.0 kmh 29.61 in1002.7 mb 0.00 in0.0 mm 0.00 in0.0 mm 0.00 in0.0 mm
03:54 AM 35.2°F1.8°C 23.5°F-4.7°C 62% 12.5 mph NW20.1 kmh NW 18.3 mph29.5 kmh 29.60 in1002.4 mb 0.00 in0.0 mm 0.00 in0.0 mm 0.00 in0.0 mm
03:53 AM 35.2°F1.8°C 23.5°F-4.7°C 62% 10.7 mph WNW17.2 kmh WNW 14.8 mph23.8 kmh 29.61 in1002.7 mb 0.00 in0.0 mm 0.00 in0.0 mm 0.00 in0.0 mm
03:52 AM 35.2°F1.8°C 23.9°F-4.5°C 63% 6.9 mph NW11.1 kmh NW 9.2 mph14.8 kmh 29.61 in1002.7 mb 0.00 in0.0 mm 0.00 in0.0 mm 0.00 in0.0 mm
03:51 AM 35.2°F1.8°C 23.9°F-4.5°C 63% 6.0 mph WNW9.7 kmh WNW 8.1 mph13.0 kmh 29.60 in1002.4 mb 0.00 in0.0 mm 0.00 in0.0 mm 0.00 in0.0 mm
03:50 AM 35.2°F1.8°C 23.5°F-4.7°C 62% 7.6 mph NW12.2 kmh NW 11.4 mph18.3 kmh 29.61 in1002.7 mb 0.00 in0.0 mm 0.00 in0.0 mm 0.00 in0.0 mm
03:49 AM 35.2°F1.8°C 23.5°F-4.7°C 62% 6.5 mph NW10.5 kmh NW 10.3 mph16.6 kmh 29.61 in1002.7 mb 0.00 in0.0 mm 0.00 in0.0 mm 0.00 in0.0 mm
03:48 AM 35.2°F1.8°C 23.9°F-4.5°C 63% 12.8 mph WNW20.6 kmh WNW 17.2 mph27.7 kmh 29.60 in1002.4 mb 0.00 in0.0 mm 0.00 in0.0 mm 0.00 in0.0 mm
03:47 AM 35.2°F1.8°C 23.9°F-4.5°C 63% 6.0 mph NW9.7 kmh NW 10.3 mph16.6 kmh 29.60 in1002.4 mb 0.00 in0.0 mm 0.00 in0.0 mm 0.00 in0.0 mm
03:46 AM 35.2°F1.8°C 23.9°F-4.5°C 63% 6.5 mph WNW10.5 kmh WNW 9.2 mph14.8 kmh 29.61 in1002.7 mb 0.00 in0.0 mm 0.00 in0.0 mm 0.00 in0.0 mm
03:45 AM 35.2°F1.8°C 23.9°F-4.5°C 63% 8.1 mph NW13.0 kmh NW 12.5 mph20.1 kmh 29.60 in1002.4 mb 0.00 in0.0 mm 0.00 in0.0 mm 0.00 in0.0 mm
03:44 AM 35.2°F1.8°C 23.9°F-4.5°C 63% 7.6 mph NW12.2 kmh NW 9.2 mph14.8 kmh 29.60 in1002.4 mb 0.00 in0.0 mm 0.00 in0.0 mm 0.00 in0.0 mm
03:43 AM 35.2°F1.8°C 23.9°F-4.5°C 63% 7.2 mph NW11.6 kmh NW 9.2 mph14.8 kmh 29.60 in1002.4 mb 0.00 in0.0 mm 0.00 in0.0 mm 0.00 in0.0 mm
03:42 AM 35.2°F1.8°C 23.9°F-4.5°C 63% 7.4 mph W11.9 kmh W 9.2 mph14.8 kmh 29.60 in1002.4 mb 0.00 in0.0 mm 0.00 in0.0 mm 0.00 in0.0 mm
03:41 AM 35.2°F1.8°C 23.9°F-4.5°C 63% 8.3 mph NW13.4 kmh NW 11.4 mph18.3 kmh 29.60 in1002.4 mb 0.00 in0.0 mm 0.00 in0.0 mm 0.00 in0.0 mm
03:40 AM 35.2°F1.8°C 23.9°F-4.5°C 63% 5.8 mph NW9.3 kmh NW 9.2 mph14.8 kmh 29.60 in1002.4 mb 0.00 in0.0 mm 0.00 in0.0 mm 0.00 in0.0 mm
03:39 AM 35.4°F1.9°C 24.1°F-4.4°C 63% 4.5 mph NW7.2 kmh NW 8.1 mph13.0 kmh 29.60 in1002.4 mb 0.00 in0.0 mm 0.00 in0.0 mm 0.00 in0.0 mm
03:38 AM 35.4°F1.9°C 24.1°F-4.4°C 63% 10.7 mph SW17.2 kmh SW 14.8 mph23.8 kmh 29.59 in1002.0 mb 0.00 in0.0 mm 0.00 in0.0 mm 0.00 in0.0 mm
03:37 AM 35.4°F1.9°C 24.1°F-4.4°C 63% 5.8 mph NW9.3 kmh NW 8.1 mph13.0 kmh 29.60 in1002.4 mb 0.00 in0.0 mm 0.00 in0.0 mm 0.00 in0.0 mm
03:36 AM 35.4°F1.9°C 24.1°F-4.4°C 63% 6.3 mph NW10.1 kmh NW 6.9 mph11.1 kmh 29.60 in1002.4 mb 0.00 in0.0 mm 0.00 in0.0 mm 0.00 in0.0 mm
03:35 AM 35.4°F1.9°C 24.1°F-4.4°C 63% 10.1 mph WNW16.3 kmh WNW 12.5 mph20.1 kmh 29.60 in1002.4 mb 0.00 in0.0 mm 0.00 in0.0 mm 0.00 in0.0 mm
03:34 AM 35.4°F1.9°C 24.1°F-4.4°C 63% 12.1 mph NW19.5 kmh NW 13.6 mph21.9 kmh 29.60 in1002.4 mb 0.00 in0.0 mm 0.00 in0.0 mm 0.00 in0.0 mm
03:33 AM 35.4°F1.9°C 24.5°F-4.2°C 64% 6.0 mph N9.7 kmh N 9.2 mph14.8 kmh 29.60 in1002.4 mb 0.00 in0.0 mm 0.00 in0.0 mm 0.00 in0.0 mm
03:32 AM 35.4°F1.9°C 24.8°F-4.0°C 65% 6.9 mph NW11.1 kmh NW 10.3 mph16.6 kmh 29.60 in1002.4 mb 0.00 in0.0 mm 0.00 in0.0 mm 0.00 in0.0 mm
03:31 AM 35.4°F1.9°C 24.5°F-4.2°C 64% 7.2 mph W11.6 kmh W 11.4 mph18.3 kmh 29.60 in1002.4 mb 0.00 in0.0 mm 0.00 in0.0 mm 0.00 in0.0 mm
03:30 AM 35.4°F1.9°C 24.5°F-4.2°C 64% 8.3 mph NW13.4 kmh NW 12.5 mph20.1 kmh 29.60 in1002.4 mb 0.00 in0.0 mm 0.00 in0.0 mm 0.00 in0.0 mm
03:29 AM 35.4°F1.9°C 24.8°F-4.0°C 65% 5.8 mph NW9.3 kmh NW 6.9 mph11.1 kmh 29.60 in1002.4 mb 0.00 in0.0 mm 0.00 in0.0 mm 0.00 in0.0 mm
03:28 AM 35.4°F1.9°C 24.8°F-4.0°C 65% 8.5 mph NNW13.7 kmh NNW 10.3 mph16.6 kmh 29.60 in1002.4 mb 0.00 in0.0 mm 0.00 in0.0 mm 0.00 in0.0 mm
03:27 AM 35.4°F1.9°C 24.8°F-4.0°C 65% 9.8 mph SW15.8 kmh SW 12.5 mph20.1 kmh 29.60 in1002.4 mb 0.00 in0.0 mm 0.00 in0.0 mm 0.00 in0.0 mm
03:26 AM 35.4°F1.9°C 24.8°F-4.0°C 65% 6.9 mph NW11.1 kmh NW 9.2 mph14.8 kmh 29.60 in1002.4 mb 0.00 in0.0 mm 0.00 in0.0 mm 0.00 in0.0 mm
03:25 AM 35.6°F2.0°C 24.6°F-4.1°C 64% 9.2 mph WNW14.8 kmh WNW 12.5 mph20.1 kmh 29.60 in1002.4 mb 0.00 in0.0 mm 0.00 in0.0 mm 0.00 in0.0 mm
03:24 AM 35.6°F2.0°C 25.0°F-3.9°C 65% 8.1 mph NW13.0 kmh NW 9.2 mph14.8 kmh 29.60 in1002.4 mb 0.00 in0.0 mm 0.00 in0.0 mm 0.00 in0.0 mm
03:23 AM 35.8°F2.1°C 24.8°F-4.0°C 64% 8.1 mph NW13.0 kmh NW 10.3 mph16.6 kmh 29.60 in1002.4 mb 0.00 in0.0 mm 0.00 in0.0 mm 0.00 in0.0 mm
03:22 AM 35.8°F2.1°C 24.8°F-4.0°C 64% 2.9 mph NW4.7 kmh NW 6.9 mph11.1 kmh 29.59 in1002.0 mb 0.00 in0.0 mm 0.00 in0.0 mm 0.00 in0.0 mm
03:21 AM 35.8°F2.1°C 24.8°F-4.0°C 64% 4.9 mph NE7.9 kmh NE 5.8 mph9.3 kmh 29.60 in1002.4 mb 0.00 in0.0 mm 0.00 in0.0 mm 0.00 in0.0 mm
03:20 AM 35.8°F2.1°C 24.5°F-4.2°C 63% 7.6 mph N12.2 kmh N 9.2 mph14.8 kmh 29.60 in1002.4 mb 0.00 in0.0 mm 0.00 in0.0 mm 0.00 in0.0 mm
03:19 AM 35.8°F2.1°C 24.5°F-4.2°C 63% 8.5 mph NW13.7 kmh NW 13.6 mph21.9 kmh 29.60 in1002.4 mb 0.00 in0.0 mm 0.00 in0.0 mm 0.00 in0.0 mm
03:18 AM 35.8°F2.1°C 24.5°F-4.2°C 63% 9.8 mph WNW15.8 kmh WNW 15.9 mph25.6 kmh 29.60 in1002.4 mb 0.00 in0.0 mm 0.00 in0.0 mm 0.00 in0.0 mm
03:17 AM 35.8°F2.1°C 24.5°F-4.2°C 63% 5.6 mph WNW9.0 kmh WNW 6.9 mph11.1 kmh 29.60 in1002.4 mb 0.00 in0.0 mm 0.00 in0.0 mm 0.00 in0.0 mm
03:16 AM 35.8°F2.1°C 24.5°F-4.2°C 63% 8.5 mph NW13.7 kmh NW 10.3 mph16.6 kmh 29.59 in1002.0 mb 0.00 in0.0 mm 0.00 in0.0 mm 0.00 in0.0 mm
03:15 AM 35.8°F2.1°C 24.5°F-4.2°C 63% 8.5 mph NW13.7 kmh NW 12.5 mph20.1 kmh 29.59 in1002.0 mb 0.00 in0.0 mm 0.00 in0.0 mm 0.00 in0.0 mm
03:14 AM 36.0°F2.2°C 24.6°F-4.1°C 63% 6.0 mph ENE9.7 kmh ENE 8.1 mph13.0 kmh 29.59 in1002.0 mb 0.00 in0.0 mm 0.00 in0.0 mm 0.00 in0.0 mm
03:13 AM 36.0°F2.2°C 24.6°F-4.1°C 63% 6.0 mph NW9.7 kmh NW 9.2 mph14.8 kmh 29.60 in1002.4 mb 0.00 in0.0 mm 0.00 in0.0 mm 0.00 in0.0 mm
03:12 AM 36.0°F2.2°C 24.6°F-4.1°C 63% 7.2 mph NNW11.6 kmh NNW 8.1 mph13.0 kmh 29.59 in1002.0 mb 0.00 in0.0 mm 0.00 in0.0 mm 0.00 in0.0 mm
03:11 AM 36.0°F2.2°C 24.3°F-4.3°C 62% 5.8 mph NNW9.3 kmh NNW 8.1 mph13.0 kmh 29.59 in1002.0 mb 0.00 in0.0 mm 0.00 in0.0 mm 0.00 in0.0 mm
03:10 AM 36.0°F2.2°C 24.3°F-4.3°C 62% 6.7 mph WNW10.8 kmh WNW 8.1 mph13.0 kmh 29.60 in1002.4 mb 0.00 in0.0 mm 0.00 in0.0 mm 0.00 in0.0 mm
03:09 AM 36.0°F2.2°C 24.3°F-4.3°C 62% 9.4 mph WNW15.1 kmh WNW 14.8 mph23.8 kmh 29.60 in1002.4 mb 0.00 in0.0 mm 0.00 in0.0 mm 0.00 in0.0 mm
03:08 AM 36.0°F2.2°C 24.3°F-4.3°C 62% 9.4 mph NW15.1 kmh NW 11.4 mph18.3 kmh 29.60 in1002.4 mb 0.00 in0.0 mm 0.00 in0.0 mm 0.00 in0.0 mm
03:07 AM 36.0°F2.2°C 24.3°F-4.3°C 62% 4.7 mph WNW7.6 kmh WNW 5.8 mph9.3 kmh 29.59 in1002.0 mb 0.00 in0.0 mm 0.00 in0.0 mm 0.00 in0.0 mm
03:06 AM 36.0°F2.2°C 23.9°F-4.5°C 61% 6.0 mph NW9.7 kmh NW 6.9 mph11.1 kmh 29.60 in1002.4 mb 0.00 in0.0 mm 0.00 in0.0 mm 0.00 in0.0 mm
03:05 AM 36.0°F2.2°C 23.9°F-4.5°C 61% 10.5 mph WSW16.9 kmh WSW 18.3 mph29.5 kmh 29.60 in1002.4 mb 0.00 in0.0 mm 0.00 in0.0 mm 0.00 in0.0 mm
03:04 AM 36.0°F2.2°C 23.9°F-4.5°C 61% 8.3 mph NNW13.4 kmh NNW 11.4 mph18.3 kmh 29.60 in1002.4 mb 0.00 in0.0 mm 0.00 in0.0 mm 0.00 in0.0 mm
03:03 AM 36.0°F2.2°C 24.3°F-4.3°C 62% 9.6 mph WNW15.4 kmh WNW 14.8 mph23.8 kmh 29.59 in1002.0 mb 0.00 in0.0 mm 0.00 in0.0 mm 0.00 in0.0 mm
03:02 AM 36.0°F2.2°C 24.3°F-4.3°C 62% 8.5 mph NW13.7 kmh NW 10.3 mph16.6 kmh 29.59 in1002.0 mb 0.00 in0.0 mm 0.00 in0.0 mm 0.00 in0.0 mm
03:01 AM 36.0°F2.2°C 24.3°F-4.3°C 62% 6.5 mph NW10.5 kmh NW 10.3 mph16.6 kmh 29.60 in1002.4 mb 0.00 in0.0 mm 0.00 in0.0 mm 0.00 in0.0 mm
03:00 AM 36.0°F2.2°C 24.6°F-4.1°C 63% 8.5 mph W13.7 kmh W 17.2 mph27.7 kmh 29.59 in1002.0 mb 0.00 in0.0 mm 0.00 in0.0 mm 0.00 in0.0 mm
02:59 AM 36.0°F2.2°C 24.3°F-4.3°C 62% 5.4 mph NW8.7 kmh NW 8.1 mph13.0 kmh 29.59 in1002.0 mb 0.00 in0.0 mm 0.00 in0.0 mm 0.00 in0.0 mm
02:58 AM 36.0°F2.2°C 24.3°F-4.3°C 62% 10.1 mph NW16.3 kmh NW 13.6 mph21.9 kmh 29.59 in1002.0 mb 0.00 in0.0 mm 0.00 in0.0 mm 0.00 in0.0 mm
02:57 AM 36.0°F2.2°C 24.6°F-4.1°C 63% 10.7 mph WNW17.2 kmh WNW 13.6 mph21.9 kmh 29.59 in1002.0 mb 0.00 in0.0 mm 0.00 in0.0 mm 0.00 in0.0 mm
02:56 AM 36.0°F2.2°C 24.6°F-4.1°C 63% 9.6 mph NW15.4 kmh NW 13.6 mph21.9 kmh 29.59 in1002.0 mb 0.00 in0.0 mm 0.00 in0.0 mm 0.00 in0.0 mm
02:55 AM 36.0°F2.2°C 24.6°F-4.1°C 63% 6.9 mph WNW11.1 kmh WNW 9.2 mph14.8 kmh 29.59 in1002.0 mb 0.00 in0.0 mm 0.00 in0.0 mm 0.00 in0.0 mm
02:54 AM 36.1°F2.3°C 24.7°F-4.1°C 63% 7.8 mph W12.6 kmh W 12.5 mph20.1 kmh 29.60 in1002.4 mb 0.00 in0.0 mm 0.00 in0.0 mm 0.00 in0.0 mm
02:53 AM 36.1°F2.3°C 24.7°F-4.1°C 63% 6.5 mph WNW10.5 kmh WNW 10.3 mph16.6 kmh 29.59 in1002.0 mb 0.00 in0.0 mm 0.00 in0.0 mm 0.00 in0.0 mm
02:52 AM 36.1°F2.3°C 24.7°F-4.1°C 63% 8.1 mph NW13.0 kmh NW 10.3 mph16.6 kmh 29.59 in1002.0 mb 0.00 in0.0 mm 0.00 in0.0 mm 0.00 in0.0 mm
02:51 AM 36.1°F2.3°C 24.7°F-4.1°C 63% 4.5 mph NW7.2 kmh NW 8.1 mph13.0 kmh 29.59 in1002.0 mb 0.00 in0.0 mm 0.00 in0.0 mm 0.00 in0.0 mm
02:50 AM 36.1°F2.3°C 24.7°F-4.1°C 63% 9.2 mph W14.8 kmh W 12.5 mph20.1 kmh 29.59 in1002.0 mb 0.00 in0.0 mm 0.00 in0.0 mm 0.00 in0.0 mm
02:49 AM 36.1°F2.3°C 24.7°F-4.1°C 63% 7.4 mph NW11.9 kmh NW 12.5 mph20.1 kmh 29.59 in1002.0 mb 0.00 in0.0 mm 0.00 in0.0 mm 0.00 in0.0 mm
02:48 AM 36.1°F2.3°C 24.7°F-4.1°C 63% 7.6 mph WNW12.2 kmh WNW 10.3 mph16.6 kmh 29.59 in1002.0 mb 0.00 in0.0 mm 0.00 in0.0 mm 0.00 in0.0 mm
02:47 AM 36.3°F2.4°C 24.9°F-3.9°C 63% 9.6 mph NNW15.4 kmh NNW 14.8 mph23.8 kmh 29.59 in1002.0 mb 0.00 in0.0 mm 0.00 in0.0 mm 0.00 in0.0 mm
02:46 AM 36.3°F2.4°C 25.3°F-3.7°C 64% 5.8 mph WNW9.3 kmh WNW 6.9 mph11.1 kmh 29.59 in1002.0 mb 0.00 in0.0 mm 0.00 in0.0 mm 0.00 in0.0 mm
02:45 AM 36.3°F2.4°C 25.3°F-3.7°C 64% 4.3 mph SE6.9 kmh SE 6.9 mph11.1 kmh 29.59 in1002.0 mb 0.00 in0.0 mm 0.00 in0.0 mm 0.00 in0.0 mm
02:44 AM 36.3°F2.4°C 24.9°F-3.9°C 63% 4.3 mph NW6.9 kmh NW 6.9 mph11.1 kmh 29.59 in1002.0 mb 0.00 in0.0 mm 0.00 in0.0 mm 0.00 in0.0 mm
02:43 AM 36.3°F2.4°C 24.9°F-3.9°C 63% 13.2 mph WNW21.2 kmh WNW 14.8 mph23.8 kmh 29.59 in1002.0 mb 0.00 in0.0 mm 0.00 in0.0 mm 0.00 in0.0 mm
02:42 AM 36.3°F2.4°C 24.9°F-3.9°C 63% 9.6 mph NW15.4 kmh NW 10.3 mph16.6 kmh 29.59 in1002.0 mb 0.00 in0.0 mm 0.00 in0.0 mm 0.00 in0.0 mm
02:41 AM 36.3°F2.4°C 24.9°F-3.9°C 63% 8.1 mph NW13.0 kmh NW 11.4 mph18.3 kmh 29.58 in1001.7 mb 0.00 in0.0 mm 0.00 in0.0 mm 0.00 in0.0 mm
02:40 AM 36.3°F2.4°C 24.9°F-3.9°C 63% 11.9 mph WNW19.2 kmh WNW 15.9 mph25.6 kmh 29.59 in1002.0 mb 0.00 in0.0 mm 0.00 in0.0 mm 0.00 in0.0 mm
02:39 AM 36.3°F2.4°C 24.9°F-3.9°C 63% 9.8 mph NW15.8 kmh NW 13.6 mph21.9 kmh 29.59 in1002.0 mb 0.00 in0.0 mm 0.00 in0.0 mm 0.00 in0.0 mm
02:38 AM 36.5°F2.5°C 25.1°F-3.8°C 63% 10.7 mph WNW17.2 kmh WNW 15.9 mph25.6 kmh 29.59 in1002.0 mb 0.00 in0.0 mm 0.00 in0.0 mm 0.00 in0.0 mm
02:37 AM 36.5°F2.5°C 25.1°F-3.8°C 63% 9.8 mph WNW15.8 kmh WNW 14.8 mph23.8 kmh 29.58 in1001.7 mb 0.00 in0.0 mm 0.00 in0.0 mm 0.00 in0.0 mm
02:36 AM 36.5°F2.5°C 25.1°F-3.8°C 63% 11.2 mph NNW18.0 kmh NNW 13.6 mph21.9 kmh 29.59 in1002.0 mb 0.00 in0.0 mm 0.00 in0.0 mm 0.00 in0.0 mm
02:35 AM 36.5°F2.5°C 25.5°F-3.6°C 64% 6.0 mph NW9.7 kmh NW 9.2 mph14.8 kmh 29.59 in1002.0 mb 0.00 in0.0 mm 0.00 in0.0 mm 0.00 in0.0 mm
02:34 AM 36.5°F2.5°C 25.5°F-3.6°C 64% 9.6 mph NW15.4 kmh NW 12.5 mph20.1 kmh 29.59 in1002.0 mb 0.00 in0.0 mm 0.00 in0.0 mm 0.00 in0.0 mm
02:33 AM 36.5°F2.5°C 25.9°F-3.4°C 65% 7.4 mph NNW11.9 kmh NNW 10.3 mph16.6 kmh 29.60 in1002.4 mb 0.00 in0.0 mm 0.00 in0.0 mm 0.00 in0.0 mm
02:32 AM 36.5°F2.5°C 25.5°F-3.6°C 64% 7.4 mph NW11.9 kmh NW 9.2 mph14.8 kmh 29.58 in1001.7 mb 0.00 in0.0 mm 0.00 in0.0 mm 0.00 in0.0 mm
02:31 AM 36.5°F2.5°C 25.9°F-3.4°C 65% 8.7 mph W14.0 kmh W 10.3 mph16.6 kmh 29.58 in1001.7 mb 0.00 in0.0 mm 0.00 in0.0 mm 0.00 in0.0 mm
02:30 AM 36.5°F2.5°C 25.5°F-3.6°C 64% 3.8 mph WSW6.1 kmh WSW 9.2 mph14.8 kmh 29.58 in1001.7 mb 0.00 in0.0 mm 0.00 in0.0 mm 0.00 in0.0 mm
02:29 AM 36.5°F2.5°C 25.5°F-3.6°C 64% 13.9 mph NW22.4 kmh NW 18.3 mph29.5 kmh 29.57 in1001.4 mb 0.00 in0.0 mm 0.00 in0.0 mm 0.00 in0.0 mm
02:28 AM 36.5°F2.5°C 25.9°F-3.4°C 65% 11.6 mph NW18.7 kmh NW 14.8 mph23.8 kmh 29.58 in1001.7 mb 0.00 in0.0 mm 0.00 in0.0 mm 0.00 in0.0 mm
02:27 AM 36.7°F2.6°C 26.1°F-3.3°C 65% 7.8 mph NW12.6 kmh NW 11.4 mph18.3 kmh 29.58 in1001.7 mb 0.00 in0.0 mm 0.00 in0.0 mm 0.00 in0.0 mm
02:26 AM 36.7°F2.6°C 25.7°F-3.5°C 64% 8.7 mph WNW14.0 kmh WNW 11.4 mph18.3 kmh 29.58 in1001.7 mb 0.00 in0.0 mm 0.00 in0.0 mm 0.00 in0.0 mm
02:25 AM 36.7°F2.6°C 25.7°F-3.5°C 64% 6.9 mph NW11.1 kmh NW 10.3 mph16.6 kmh 29.58 in1001.7 mb 0.00 in0.0 mm 0.00 in0.0 mm 0.00 in0.0 mm
02:24 AM 36.9°F2.7°C 25.9°F-3.4°C 64% 5.1 mph NW8.2 kmh NW 6.9 mph11.1 kmh 29.58 in1001.7 mb 0.00 in0.0 mm 0.00 in0.0 mm 0.00 in0.0 mm
02:23 AM 36.9°F2.7°C 25.9°F-3.4°C 64% 6.3 mph NNW10.1 kmh NNW 10.3 mph16.6 kmh 29.58 in1001.7 mb 0.00 in0.0 mm 0.00 in0.0 mm 0.00 in0.0 mm
02:22 AM 36.9°F2.7°C 25.9°F-3.4°C 64% 6.9 mph NW11.1 kmh NW 8.1 mph13.0 kmh 29.58 in1001.7 mb 0.00 in0.0 mm 0.00 in0.0 mm 0.00 in0.0 mm
02:21 AM 36.9°F2.7°C 26.3°F-3.2°C 65% 6.9 mph W11.1 kmh W 10.3 mph16.6 kmh 29.58 in1001.7 mb 0.00 in0.0 mm 0.00 in0.0 mm 0.00 in0.0 mm
02:20 AM 36.9°F2.7°C 25.9°F-3.4°C 64% 2.7 mph NNW4.3 kmh NNW 3.4 mph5.5 kmh 29.58 in1001.7 mb 0.00 in0.0 mm 0.00 in0.0 mm 0.00 in0.0 mm
02:19 AM 36.9°F2.7°C 25.9°F-3.4°C 64% 9.2 mph NW14.8 kmh NW 12.5 mph20.1 kmh 29.58 in1001.7 mb 0.00 in0.0 mm 0.00 in0.0 mm 0.00 in0.0 mm
02:18 AM 36.9°F2.7°C 25.5°F-3.6°C 63% 13.0 mph WNW20.9 kmh WNW 15.9 mph25.6 kmh 29.57 in1001.4 mb 0.00 in0.0 mm 0.00 in0.0 mm 0.00 in0.0 mm
02:17 AM 37.0°F2.8°C 25.6°F-3.6°C 63% 8.7 mph NNW14.0 kmh NNW 10.3 mph16.6 kmh 29.58 in1001.7 mb 0.00 in0.0 mm 0.00 in0.0 mm 0.00 in0.0 mm
02:16 AM 37.0°F2.8°C 25.6°F-3.6°C 63% 8.5 mph N13.7 kmh N 10.3 mph16.6 kmh 29.58 in1001.7 mb 0.00 in0.0 mm 0.00 in0.0 mm 0.00 in0.0 mm
02:15 AM 37.0°F2.8°C 25.6°F-3.6°C 63% 11.6 mph NW18.7 kmh NW 17.2 mph27.7 kmh 29.58 in1001.7 mb 0.00 in0.0 mm 0.00 in0.0 mm 0.00 in0.0 mm
02:14 AM 37.0°F2.8°C 25.6°F-3.6°C 63% 3.8 mph NNE6.1 kmh NNE 4.5 mph7.2 kmh 29.58 in1001.7 mb 0.00 in0.0 mm 0.00 in0.0 mm 0.00 in0.0 mm
02:13 AM 37.0°F2.8°C 25.6°F-3.6°C 63% 9.2 mph WNW14.8 kmh WNW 12.5 mph20.1 kmh 29.58 in1001.7 mb 0.00 in0.0 mm 0.00 in0.0 mm 0.00 in0.0 mm
02:12 AM 37.2°F2.9°C 25.4°F-3.7°C 62% 9.2 mph NW14.8 kmh NW 11.4 mph18.3 kmh 29.57 in1001.4 mb 0.00 in0.0 mm 0.00 in0.0 mm 0.00 in0.0 mm
02:11 AM 37.2°F2.9°C 25.4°F-3.7°C 62% 11.0 mph NNW17.7 kmh NNW 13.6 mph21.9 kmh 29.58 in1001.7 mb 0.00 in0.0 mm 0.00 in0.0 mm 0.00 in0.0 mm
02:10 AM 37.2°F2.9°C 25.4°F-3.7°C 62% 8.1 mph NW13.0 kmh NW 10.3 mph16.6 kmh 29.58 in1001.7 mb 0.00 in0.0 mm 0.00 in0.0 mm 0.00 in0.0 mm
02:09 AM 37.4°F3.0°C 25.6°F-3.6°C 62% 9.8 mph WSW15.8 kmh WSW 13.6 mph21.9 kmh 29.57 in1001.4 mb 0.00 in0.0 mm 0.00 in0.0 mm 0.00 in0.0 mm
02:08 AM 37.4°F3.0°C 26.0°F-3.3°C 63% 13.6 mph WNW21.9 kmh WNW 21.7 mph34.9 kmh 29.57 in1001.4 mb 0.00 in0.0 mm 0.00 in0.0 mm 0.00 in0.0 mm
02:07 AM 37.6°F3.1°C 26.2°F-3.2°C 63% 9.2 mph WNW14.8 kmh WNW 13.6 mph21.9 kmh 29.57 in1001.4 mb 0.00 in0.0 mm 0.00 in0.0 mm 0.00 in0.0 mm
02:06 AM 37.6°F3.1°C 26.2°F-3.2°C 63% 9.2 mph NW14.8 kmh NW 11.4 mph18.3 kmh 29.57 in1001.4 mb 0.00 in0.0 mm 0.00 in0.0 mm 0.00 in0.0 mm
02:05 AM 37.6°F3.1°C 26.5°F-3.1°C 64% 4.5 mph NW7.2 kmh NW 6.9 mph11.1 kmh 29.57 in1001.4 mb 0.00 in0.0 mm 0.00 in0.0 mm 0.00 in0.0 mm
02:04 AM 37.6°F3.1°C 26.2°F-3.2°C 63% 9.6 mph NW15.4 kmh NW 12.5 mph20.1 kmh 29.56 in1001.0 mb 0.00 in0.0 mm 0.00 in0.0 mm 0.00 in0.0 mm
02:03 AM 37.6°F3.1°C 26.2°F-3.2°C 63% 6.9 mph ENE11.1 kmh ENE 9.2 mph14.8 kmh 29.57 in1001.4 mb 0.00 in0.0 mm 0.00 in0.0 mm 0.00 in0.0 mm
02:02 AM 37.6°F3.1°C 26.5°F-3.1°C 64% 10.7 mph NW17.2 kmh NW 15.9 mph25.6 kmh 29.55 in1000.7 mb 0.00 in0.0 mm 0.00 in0.0 mm 0.00 in0.0 mm
02:01 AM 37.6°F3.1°C 26.2°F-3.2°C 63% 9.6 mph WNW15.4 kmh WNW 12.5 mph20.1 kmh 29.56 in1001.0 mb 0.00 in0.0 mm 0.00 in0.0 mm 0.00 in0.0 mm
02:00 AM 37.8°F3.2°C 26.4°F-3.1°C 63% 12.3 mph NNW19.8 kmh NNW 15.9 mph25.6 kmh 29.56 in1001.0 mb 0.00 in0.0 mm 0.00 in0.0 mm 0.00 in0.0 mm
01:59 AM 37.9°F3.3°C 26.4°F-3.1°C 63% 10.5 mph NW16.9 kmh NW 18.3 mph29.5 kmh 29.56 in1001.0 mb 0.00 in0.0 mm 0.00 in0.0 mm 0.00 in0.0 mm
01:58 AM 37.9°F3.3°C 26.8°F-2.9°C 64% 8.1 mph WSW13.0 kmh WSW 11.4 mph18.3 kmh 29.56 in1001.0 mb 0.00 in0.0 mm 0.00 in0.0 mm 0.00 in0.0 mm
01:57 AM 37.9°F3.3°C 26.8°F-2.9°C 64% 5.1 mph NW8.2 kmh NW 5.8 mph9.3 kmh 29.56 in1001.0 mb 0.00 in0.0 mm 0.00 in0.0 mm 0.00 in0.0 mm
01:56 AM 37.9°F3.3°C 26.8°F-2.9°C 64% 7.2 mph NW11.6 kmh NW 9.2 mph14.8 kmh 29.56 in1001.0 mb 0.00 in0.0 mm 0.00 in0.0 mm 0.00 in0.0 mm
01:55 AM 37.9°F3.3°C 26.8°F-2.9°C 64% 7.6 mph WNW12.2 kmh WNW 9.2 mph14.8 kmh 29.55 in1000.7 mb 0.00 in0.0 mm 0.00 in0.0 mm 0.00 in0.0 mm
01:54 AM 37.9°F3.3°C 26.8°F-2.9°C 64% 6.5 mph NW10.5 kmh NW 8.1 mph13.0 kmh 29.56 in1001.0 mb 0.00 in0.0 mm 0.00 in0.0 mm 0.00 in0.0 mm
01:53 AM 38.1°F3.4°C 27.4°F-2.6°C 65% 8.5 mph WNW13.7 kmh WNW 11.4 mph18.3 kmh 29.56 in1001.0 mb 0.00 in0.0 mm 0.00 in0.0 mm 0.00 in0.0 mm
01:52 AM 38.1°F3.4°C 27.0°F-2.8°C 64% 6.5 mph NW10.5 kmh NW 10.3 mph16.6 kmh 29.56 in1001.0 mb 0.00 in0.0 mm 0.00 in0.0 mm 0.00 in0.0 mm
01:51 AM 38.1°F3.4°C 27.0°F-2.8°C 64% 6.9 mph NW11.1 kmh NW 11.4 mph18.3 kmh 29.57 in1001.4 mb 0.00 in0.0 mm 0.00 in0.0 mm 0.00 in0.0 mm
01:50 AM 38.1°F3.4°C 27.0°F-2.8°C 64% 8.3 mph NW13.4 kmh NW 10.3 mph16.6 kmh 29.56 in1001.0 mb 0.00 in0.0 mm 0.00 in0.0 mm 0.00 in0.0 mm
01:49 AM 38.1°F3.4°C 27.0°F-2.8°C 64% 5.8 mph N9.3 kmh N 10.3 mph16.6 kmh 29.56 in1001.0 mb 0.00 in0.0 mm 0.00 in0.0 mm 0.00 in0.0 mm
01:48 AM 38.1°F3.4°C 27.0°F-2.8°C 64% 3.8 mph NW6.1 kmh NW 6.9 mph11.1 kmh 29.56 in1001.0 mb 0.00 in0.0 mm 0.00 in0.0 mm 0.00 in0.0 mm
01:47 AM 38.1°F3.4°C 27.0°F-2.8°C 64% 7.6 mph NW12.2 kmh NW 9.2 mph14.8 kmh 29.56 in1001.0 mb 0.00 in0.0 mm 0.00 in0.0 mm 0.00 in0.0 mm
01:46 AM 38.1°F3.4°C 27.0°F-2.8°C 64% 7.2 mph WNW11.6 kmh WNW 9.2 mph14.8 kmh 29.56 in1001.0 mb 0.00 in0.0 mm 0.00 in0.0 mm 0.00 in0.0 mm
01:45 AM 38.1°F3.4°C 26.6°F-3.0°C 63% 6.0 mph NW9.7 kmh NW 9.2 mph14.8 kmh 29.56 in1001.0 mb 0.00 in0.0 mm 0.00 in0.0 mm 0.00 in0.0 mm
01:44 AM 38.1°F3.4°C 26.6°F-3.0°C 63% 10.5 mph W16.9 kmh W 12.5 mph20.1 kmh 29.56 in1001.0 mb 0.00 in0.0 mm 0.00 in0.0 mm 0.00 in0.0 mm
01:43 AM 38.1°F3.4°C 27.0°F-2.8°C 64% 6.9 mph SSW11.1 kmh SSW 9.2 mph14.8 kmh 29.56 in1001.0 mb 0.00 in0.0 mm 0.00 in0.0 mm 0.00 in0.0 mm
01:42 AM 38.1°F3.4°C 27.4°F-2.6°C 65% 4.3 mph N6.9 kmh N 6.9 mph11.1 kmh 29.56 in1001.0 mb 0.00 in0.0 mm 0.00 in0.0 mm 0.00 in0.0 mm
01:41 AM 38.3°F3.5°C 27.2°F-2.7°C 64% 5.4 mph NW8.7 kmh NW 9.2 mph14.8 kmh 29.56 in1001.0 mb 0.00 in0.0 mm 0.00 in0.0 mm 0.00 in0.0 mm
01:40 AM 38.3°F3.5°C 27.2°F-2.7°C 64% 6.5 mph NW10.5 kmh NW 8.1 mph13.0 kmh 29.55 in1000.7 mb 0.00 in0.0 mm 0.00 in0.0 mm 0.00 in0.0 mm
01:39 AM 38.3°F3.5°C 27.2°F-2.7°C 64% 5.1 mph NW8.2 kmh NW 8.1 mph13.0 kmh 29.55 in1000.7 mb 0.00 in0.0 mm 0.00 in0.0 mm 0.00 in0.0 mm
01:38 AM 38.3°F3.5°C 27.6°F-2.4°C 65% 6.9 mph WNW11.1 kmh WNW 10.3 mph16.6 kmh 29.55 in1000.7 mb 0.00 in0.0 mm 0.00 in0.0 mm 0.00 in0.0 mm
01:37 AM 38.3°F3.5°C 27.2°F-2.7°C 64% 4.9 mph NW7.9 kmh NW 5.8 mph9.3 kmh 29.55 in1000.7 mb 0.00 in0.0 mm 0.00 in0.0 mm 0.00 in0.0 mm
01:36 AM 38.3°F3.5°C 27.2°F-2.7°C 64% 8.9 mph W14.3 kmh W 12.5 mph20.1 kmh 29.55 in1000.7 mb 0.00 in0.0 mm 0.00 in0.0 mm 0.00 in0.0 mm
01:35 AM 38.3°F3.5°C 27.2°F-2.7°C 64% 6.0 mph WNW9.7 kmh WNW 8.1 mph13.0 kmh 29.55 in1000.7 mb 0.00 in0.0 mm 0.00 in0.0 mm 0.00 in0.0 mm
01:34 AM 38.3°F3.5°C 27.2°F-2.7°C 64% 5.4 mph NW8.7 kmh NW 8.1 mph13.0 kmh 29.55 in1000.7 mb 0.00 in0.0 mm 0.00 in0.0 mm 0.00 in0.0 mm
01:33 AM 38.3°F3.5°C 27.2°F-2.7°C 64% 5.4 mph NW8.7 kmh NW 9.2 mph14.8 kmh 29.55 in1000.7 mb 0.00 in0.0 mm 0.00 in0.0 mm 0.00 in0.0 mm
01:32 AM 38.3°F3.5°C 27.6°F-2.4°C 65% 8.5 mph NW13.7 kmh NW 12.5 mph20.1 kmh 29.54 in1000.3 mb 0.00 in0.0 mm 0.00 in0.0 mm 0.00 in0.0 mm
01:31 AM 38.3°F3.5°C 27.6°F-2.4°C 65% 6.3 mph NW10.1 kmh NW 9.2 mph14.8 kmh 29.55 in1000.7 mb 0.00 in0.0 mm 0.00 in0.0 mm 0.00 in0.0 mm
01:30 AM 38.3°F3.5°C 27.6°F-2.4°C 65% 2.7 mph N4.3 kmh N 4.5 mph7.2 kmh 29.55 in1000.7 mb 0.00 in0.0 mm 0.00 in0.0 mm 0.00 in0.0 mm
01:29 AM 38.3°F3.5°C 27.6°F-2.4°C 65% 4.3 mph W6.9 kmh W 4.5 mph7.2 kmh 29.55 in1000.7 mb 0.00 in0.0 mm 0.00 in0.0 mm 0.00 in0.0 mm
01:28 AM 38.5°F3.6°C 27.8°F-2.3°C 65% 7.6 mph W12.2 kmh W 12.5 mph20.1 kmh 29.55 in1000.7 mb 0.00 in0.0 mm 0.00 in0.0 mm 0.00 in0.0 mm
01:27 AM 38.5°F3.6°C 28.1°F-2.2°C 66% 6.7 mph N10.8 kmh N 10.3 mph16.6 kmh 29.55 in1000.7 mb 0.00 in0.0 mm 0.00 in0.0 mm 0.00 in0.0 mm
01:26 AM 38.5°F3.6°C 27.8°F-2.3°C 65% 6.0 mph NW9.7 kmh NW 6.9 mph11.1 kmh 29.54 in1000.3 mb 0.00 in0.0 mm 0.00 in0.0 mm 0.00 in0.0 mm
01:25 AM 38.5°F3.6°C 27.8°F-2.3°C 65% 2.9 mph WSW4.7 kmh WSW 4.5 mph7.2 kmh 29.55 in1000.7 mb 0.00 in0.0 mm 0.00 in0.0 mm 0.00 in0.0 mm
01:24 AM 38.5°F3.6°C 28.1°F-2.2°C 66% 8.7 mph NW14.0 kmh NW 10.3 mph16.6 kmh 29.55 in1000.7 mb 0.00 in0.0 mm 0.00 in0.0 mm 0.00 in0.0 mm
01:23 AM 38.5°F3.6°C 28.1°F-2.2°C 66% 6.0 mph W9.7 kmh W 8.1 mph13.0 kmh 29.55 in1000.7 mb 0.00 in0.0 mm 0.00 in0.0 mm 0.00 in0.0 mm
01:22 AM 38.5°F3.6°C 28.1°F-2.2°C 66% 8.7 mph NW14.0 kmh NW 12.5 mph20.1 kmh 29.55 in1000.7 mb 0.00 in0.0 mm 0.00 in0.0 mm 0.00 in0.0 mm
01:21 AM 38.5°F3.6°C 28.1°F-2.2°C 66% 3.4 mph NW5.5 kmh NW 4.5 mph7.2 kmh 29.54 in1000.3 mb 0.00 in0.0 mm 0.00 in0.0 mm 0.00 in0.0 mm
01:20 AM 38.5°F3.6°C 28.5°F-1.9°C 67% 7.4 mph W11.9 kmh W 13.6 mph21.9 kmh 29.54 in1000.3 mb 0.00 in0.0 mm 0.00 in0.0 mm 0.00 in0.0 mm
01:19 AM 38.5°F3.6°C 28.5°F-1.9°C 67% 8.1 mph W13.0 kmh W 11.4 mph18.3 kmh 29.55 in1000.7 mb 0.00 in0.0 mm 0.00 in0.0 mm 0.00 in0.0 mm
01:18 AM 38.5°F3.6°C 28.5°F-1.9°C 67% 5.8 mph NE9.3 kmh NE 6.9 mph11.1 kmh 29.55 in1000.7 mb 0.00 in0.0 mm 0.00 in0.0 mm 0.00 in0.0 mm
01:17 AM 38.5°F3.6°C 28.5°F-1.9°C 67% 4.7 mph NW7.6 kmh NW 6.9 mph11.1 kmh 29.55 in1000.7 mb 0.00 in0.0 mm 0.00 in0.0 mm 0.00 in0.0 mm
01:16 AM 38.5°F3.6°C 28.5°F-1.9°C 67% 5.4 mph NW8.7 kmh NW 10.3 mph16.6 kmh 29.55 in1000.7 mb 0.00 in0.0 mm 0.00 in0.0 mm 0.00 in0.0 mm
01:15 AM 38.5°F3.6°C 28.5°F-1.9°C 67% 8.9 mph WNW14.3 kmh WNW 12.5 mph20.1 kmh 29.54 in1000.3 mb 0.00 in0.0 mm 0.00 in0.0 mm 0.00 in0.0 mm
01:14 AM 38.5°F3.6°C 28.5°F-1.9°C 67% 5.4 mph NW8.7 kmh NW 6.9 mph11.1 kmh 29.55 in1000.7 mb 0.00 in0.0 mm 0.00 in0.0 mm 0.00 in0.0 mm
01:13 AM 38.5°F3.6°C 28.9°F-1.7°C 68% 5.4 mph NW8.7 kmh NW 8.1 mph13.0 kmh 29.55 in1000.7 mb 0.00 in0.0 mm 0.00 in0.0 mm 0.00 in0.0 mm
01:12 AM 38.5°F3.6°C 28.9°F-1.7°C 68% 6.0 mph NW9.7 kmh NW 8.1 mph13.0 kmh 29.55 in1000.7 mb 0.00 in0.0 mm 0.00 in0.0 mm 0.00 in0.0 mm
01:11 AM 38.5°F3.6°C 28.9°F-1.7°C 68% 8.1 mph NNW13.0 kmh NNW 9.2 mph14.8 kmh 29.54 in1000.3 mb 0.00 in0.0 mm 0.00 in0.0 mm 0.00 in0.0 mm
01:10 AM 38.5°F3.6°C 28.9°F-1.7°C 68% 6.0 mph W9.7 kmh W 11.4 mph18.3 kmh 29.54 in1000.3 mb 0.00 in0.0 mm 0.00 in0.0 mm 0.00 in0.0 mm
01:09 AM 38.5°F3.6°C 28.9°F-1.7°C 68% 7.6 mph NW12.2 kmh NW 9.2 mph14.8 kmh 29.55 in1000.7 mb 0.00 in0.0 mm 0.00 in0.0 mm 0.00 in0.0 mm
01:08 AM 38.5°F3.6°C 28.9°F-1.7°C 68% 3.8 mph WSW6.1 kmh WSW 6.9 mph11.1 kmh 29.54 in1000.3 mb 0.00 in0.0 mm 0.00 in0.0 mm 0.00 in0.0 mm
01:07 AM 38.5°F3.6°C 28.9°F-1.7°C 68% 4.7 mph SW7.6 kmh SW 8.1 mph13.0 kmh 29.54 in1000.3 mb 0.00 in0.0 mm 0.00 in0.0 mm 0.00 in0.0 mm
01:06 AM 38.5°F3.6°C 28.9°F-1.7°C 68% 5.8 mph WNW9.3 kmh WNW 8.1 mph13.0 kmh 29.55 in1000.7 mb 0.00 in0.0 mm 0.00 in0.0 mm 0.00 in0.0 mm
01:05 AM 38.5°F3.6°C 28.9°F-1.7°C 68% 6.7 mph NW10.8 kmh NW 11.4 mph18.3 kmh 29.54 in1000.3 mb 0.00 in0.0 mm 0.00 in0.0 mm 0.00 in0.0 mm
01:04 AM 38.5°F3.6°C 28.9°F-1.7°C 68% 5.4 mph WNW8.7 kmh WNW 9.2 mph14.8 kmh 29.54 in1000.3 mb 0.00 in0.0 mm 0.00 in0.0 mm 0.00 in0.0 mm
01:03 AM 38.5°F3.6°C 28.9°F-1.7°C 68% 7.2 mph NNW11.6 kmh NNW 9.2 mph14.8 kmh 29.55 in1000.7 mb 0.00 in0.0 mm 0.00 in0.0 mm 0.00 in0.0 mm
01:02 AM 38.5°F3.6°C 28.9°F-1.7°C 68% 9.8 mph WNW15.8 kmh WNW 11.4 mph18.3 kmh 29.55 in1000.7 mb 0.00 in0.0 mm 0.00 in0.0 mm 0.00 in0.0 mm
01:01 AM 38.5°F3.6°C 28.9°F-1.7°C 68% 4.9 mph NW7.9 kmh NW 8.1 mph13.0 kmh 29.54 in1000.3 mb 0.00 in0.0 mm 0.00 in0.0 mm 0.00 in0.0 mm
01:00 AM 38.5°F3.6°C 28.9°F-1.7°C 68% 11.0 mph NW17.7 kmh NW 12.5 mph20.1 kmh 29.55 in1000.7 mb 0.00 in0.0 mm 0.00 in0.0 mm 0.00 in0.0 mm
12:59 AM 38.7°F3.7°C 29.1°F-1.6°C 68% 7.8 mph NW12.6 kmh NW 11.4 mph18.3 kmh 29.54 in1000.3 mb 0.00 in0.0 mm 0.00 in0.0 mm 0.00 in0.0 mm
12:58 AM 38.7°F3.7°C 29.1°F-1.6°C 68% 7.2 mph WSW11.6 kmh WSW 8.1 mph13.0 kmh 29.53 in1000.0 mb 0.00 in0.0 mm 0.00 in0.0 mm 0.00 in0.0 mm
12:57 AM 38.7°F3.7°C 29.1°F-1.6°C 68% 8.1 mph NW13.0 kmh NW 15.9 mph25.6 kmh 29.54 in1000.3 mb 0.00 in0.0 mm 0.00 in0.0 mm 0.00 in0.0 mm
12:56 AM 38.7°F3.7°C 29.1°F-1.6°C 68% 8.1 mph N13.0 kmh N 13.6 mph21.9 kmh 29.54 in1000.3 mb 0.00 in0.0 mm 0.00 in0.0 mm 0.00 in0.0 mm
12:55 AM 38.7°F3.7°C 29.1°F-1.6°C 68% 8.5 mph NW13.7 kmh NW 12.5 mph20.1 kmh 29.54 in1000.3 mb 0.00 in0.0 mm 0.00 in0.0 mm 0.00 in0.0 mm
12:54 AM 38.7°F3.7°C 29.1°F-1.6°C 68% 8.5 mph NW13.7 kmh NW 9.2 mph14.8 kmh 29.54 in1000.3 mb 0.00 in0.0 mm 0.00 in0.0 mm 0.00 in0.0 mm
12:53 AM 38.7°F3.7°C 29.1°F-1.6°C 68% 8.9 mph NW14.3 kmh NW 11.4 mph18.3 kmh 29.54 in1000.3 mb 0.00 in0.0 mm 0.00 in0.0 mm 0.00 in0.0 mm
12:52 AM 38.7°F3.7°C 29.1°F-1.6°C 68% 9.2 mph NW14.8 kmh NW 11.4 mph18.3 kmh 29.54 in1000.3 mb 0.00 in0.0 mm 0.00 in0.0 mm 0.00 in0.0 mm
12:51 AM 38.8°F3.8°C 29.2°F-1.6°C 68% 6.0 mph WNW9.7 kmh WNW 6.9 mph11.1 kmh 29.55 in1000.7 mb 0.00 in0.0 mm 0.00 in0.0 mm 0.00 in0.0 mm
12:50 AM 38.8°F3.8°C 28.8°F-1.8°C 67% 5.1 mph NW8.2 kmh NW 5.8 mph9.3 kmh 29.54 in1000.3 mb 0.00 in0.0 mm 0.00 in0.0 mm 0.00 in0.0 mm
12:49 AM 38.8°F3.8°C 28.8°F-1.8°C 67% 5.1 mph NNW8.2 kmh NNW 6.9 mph11.1 kmh 29.54 in1000.3 mb 0.00 in0.0 mm 0.00 in0.0 mm 0.00 in0.0 mm
12:48 AM 38.8°F3.8°C 28.8°F-1.8°C 67% 7.6 mph NW12.2 kmh NW 11.4 mph18.3 kmh 29.53 in1000.0 mb 0.00 in0.0 mm 0.00 in0.0 mm 0.00 in0.0 mm
12:47 AM 38.8°F3.8°C 28.8°F-1.8°C 67% 8.9 mph NW14.3 kmh NW 13.6 mph21.9 kmh 29.54 in1000.3 mb 0.00 in0.0 mm 0.00 in0.0 mm 0.00 in0.0 mm
12:46 AM 38.8°F3.8°C 28.8°F-1.8°C 67% 7.4 mph WNW11.9 kmh WNW 9.2 mph14.8 kmh 29.54 in1000.3 mb 0.00 in0.0 mm 0.00 in0.0 mm 0.00 in0.0 mm
12:45 AM 38.8°F3.8°C 28.8°F-1.8°C 67% 5.8 mph NW9.3 kmh NW 8.1 mph13.0 kmh 29.53 in1000.0 mb 0.00 in0.0 mm 0.00 in0.0 mm 0.00 in0.0 mm
12:44 AM 38.8°F3.8°C 28.8°F-1.8°C 67% 12.1 mph NW19.5 kmh NW 14.8 mph23.8 kmh 29.53 in1000.0 mb 0.00 in0.0 mm 0.00 in0.0 mm 0.00 in0.0 mm
12:43 AM 38.8°F3.8°C 28.8°F-1.8°C 67% 9.6 mph NW15.4 kmh NW 12.5 mph20.1 kmh 29.54 in1000.3 mb 0.00 in0.0 mm 0.00 in0.0 mm 0.00 in0.0 mm
12:42 AM 38.8°F3.8°C 28.8°F-1.8°C 67% 6.9 mph WNW11.1 kmh WNW 10.3 mph16.6 kmh 29.54 in1000.3 mb 0.00 in0.0 mm 0.00 in0.0 mm 0.00 in0.0 mm
12:41 AM 39.0°F3.9°C 29.3°F-1.5°C 68% 6.5 mph NW10.5 kmh NW 8.1 mph13.0 kmh 29.53 in1000.0 mb 0.00 in0.0 mm 0.00 in0.0 mm 0.00 in0.0 mm
12:40 AM 39.0°F3.9°C 29.3°F-1.5°C 68% 8.1 mph WNW13.0 kmh WNW 12.5 mph20.1 kmh 29.53 in1000.0 mb 0.00 in0.0 mm 0.00 in0.0 mm 0.00 in0.0 mm
12:39 AM 39.0°F3.9°C 29.3°F-1.5°C 68% 12.3 mph NNW19.8 kmh NNW 15.9 mph25.6 kmh 29.54 in1000.3 mb 0.00 in0.0 mm 0.00 in0.0 mm 0.00 in0.0 mm
12:38 AM 39.2°F4.0°C 29.5°F-1.4°C 68% 6.0 mph NW9.7 kmh NW 8.1 mph13.0 kmh 29.54 in1000.3 mb 0.00 in0.0 mm 0.00 in0.0 mm 0.00 in0.0 mm
12:37 AM 39.2°F4.0°C 29.2°F-1.6°C 67% 4.5 mph NW7.2 kmh NW 5.8 mph9.3 kmh 29.53 in1000.0 mb 0.00 in0.0 mm 0.00 in0.0 mm 0.00 in0.0 mm
12:36 AM 39.2°F4.0°C 29.2°F-1.6°C 67% 8.9 mph W14.3 kmh W 11.4 mph18.3 kmh 29.53 in1000.0 mb 0.00 in0.0 mm 0.00 in0.0 mm 0.00 in0.0 mm
12:35 AM 39.4°F4.1°C 29.4°F-1.4°C 67% 8.9 mph WNW14.3 kmh WNW 10.3 mph16.6 kmh 29.54 in1000.3 mb 0.00 in0.0 mm 0.00 in0.0 mm 0.00 in0.0 mm
12:34 AM 39.4°F4.1°C 29.4°F-1.4°C 67% 8.1 mph W13.0 kmh W 10.3 mph16.6 kmh 29.54 in1000.3 mb 0.00 in0.0 mm 0.00 in0.0 mm 0.00 in0.0 mm
12:33 AM 39.6°F4.2°C 29.2°F-1.6°C 66% 10.1 mph NW16.3 kmh NW 13.6 mph21.9 kmh 29.54 in1000.3 mb 0.00 in0.0 mm 0.00 in0.0 mm 0.00 in0.0 mm
12:32 AM 39.6°F4.2°C 29.6°F-1.3°C 67% 9.8 mph NW15.8 kmh NW 17.2 mph27.7 kmh 29.53 in1000.0 mb 0.00 in0.0 mm 0.00 in0.0 mm 0.00 in0.0 mm
12:31 AM 39.6°F4.2°C 29.2°F-1.6°C 66% 5.6 mph WNW9.0 kmh WNW 6.9 mph11.1 kmh 29.53 in1000.0 mb 0.00 in0.0 mm 0.00 in0.0 mm 0.00 in0.0 mm
12:30 AM 39.6°F4.2°C 29.2°F-1.6°C 66% 11.9 mph NW19.2 kmh NW 14.8 mph23.8 kmh 29.53 in1000.0 mb 0.00 in0.0 mm 0.00 in0.0 mm 0.00 in0.0 mm
12:29 AM 39.6°F4.2°C 29.6°F-1.3°C 67% 8.5 mph W13.7 kmh W 11.4 mph18.3 kmh 29.52 in999.7 mb 0.00 in0.0 mm 0.00 in0.0 mm 0.00 in0.0 mm
12:28 AM 39.6°F4.2°C 29.6°F-1.3°C 67% 8.7 mph NW14.0 kmh NW 10.3 mph16.6 kmh 29.53 in1000.0 mb 0.00 in0.0 mm 0.00 in0.0 mm 0.00 in0.0 mm
12:27 AM 39.7°F4.3°C 29.7°F-1.3°C 67% 6.9 mph NW11.1 kmh NW 11.4 mph18.3 kmh 29.53 in1000.0 mb 0.00 in0.0 mm 0.00 in0.0 mm 0.00 in0.0 mm
12:26 AM 39.7°F4.3°C 29.7°F-1.3°C 67% 7.8 mph NW12.6 kmh NW 12.5 mph20.1 kmh 29.53 in1000.0 mb 0.00 in0.0 mm 0.00 in0.0 mm 0.00 in0.0 mm
12:25 AM 39.9°F4.4°C 29.8°F-1.2°C 67% 6.9 mph NW11.1 kmh NW 10.3 mph16.6 kmh 29.53 in1000.0 mb 0.00 in0.0 mm 0.00 in0.0 mm 0.00 in0.0 mm
12:24 AM 39.9°F4.4°C 29.8°F-1.2°C 67% 8.9 mph NNW14.3 kmh NNW 12.5 mph20.1 kmh 29.54 in1000.3 mb 0.00 in0.0 mm 0.00 in0.0 mm 0.00 in0.0 mm
12:23 AM 40.1°F4.5°C 30.0°F-1.1°C 67% 6.5 mph WSW10.5 kmh WSW 10.3 mph16.6 kmh 29.53 in1000.0 mb 0.00 in0.0 mm 0.00 in0.0 mm 0.00 in0.0 mm
12:22 AM 40.3°F4.6°C 30.2°F-1.0°C 67% 9.4 mph W15.1 kmh W 12.5 mph20.1 kmh 29.53 in1000.0 mb 0.00 in0.0 mm 0.00 in0.0 mm 0.00 in0.0 mm
12:21 AM 40.3°F4.6°C 30.2°F-1.0°C 67% 8.1 mph WNW13.0 kmh WNW 11.4 mph18.3 kmh 29.53 in1000.0 mb 0.00 in0.0 mm 0.00 in0.0 mm 0.00 in0.0 mm
12:20 AM 40.3°F4.6°C 30.2°F-1.0°C 67% 3.4 mph NW5.5 kmh NW 4.5 mph7.2 kmh 29.53 in1000.0 mb 0.00 in0.0 mm 0.00 in0.0 mm 0.00 in0.0 mm
12:19 AM 40.5°F4.7°C 30.0°F-1.1°C 66% 6.7 mph W10.8 kmh W 8.1 mph13.0 kmh 29.53 in1000.0 mb 0.00 in0.0 mm 0.00 in0.0 mm 0.00 in0.0 mm
12:18 AM 40.5°F4.7°C 30.0°F-1.1°C 66% 12.8 mph NW20.6 kmh NW 17.2 mph27.7 kmh 29.53 in1000.0 mb 0.00 in0.0 mm 0.00 in0.0 mm 0.00 in0.0 mm
12:17 AM 40.5°F4.7°C 29.7°F-1.3°C 65% 12.1 mph WSW19.5 kmh WSW 15.9 mph25.6 kmh 29.53 in1000.0 mb 0.00 in0.0 mm 0.00 in0.0 mm 0.00 in0.0 mm
12:16 AM 40.5°F4.7°C 29.7°F-1.3°C 65% 11.2 mph NW18.0 kmh NW 15.9 mph25.6 kmh 29.53 in1000.0 mb 0.00 in0.0 mm 0.00 in0.0 mm 0.00 in0.0 mm
12:15 AM 40.5°F4.7°C 29.7°F-1.3°C 65% 4.9 mph W7.9 kmh W 6.9 mph11.1 kmh 29.53 in1000.0 mb 0.00 in0.0 mm 0.00 in0.0 mm 0.00 in0.0 mm
12:14 AM 40.5°F4.7°C 29.3°F-1.5°C 64% 8.5 mph N13.7 kmh N 12.5 mph20.1 kmh 29.53 in1000.0 mb 0.00 in0.0 mm 0.00 in0.0 mm 0.00 in0.0 mm
12:13 AM 40.6°F4.8°C 29.8°F-1.2°C 65% 6.0 mph N9.7 kmh N 6.9 mph11.1 kmh 29.53 in1000.0 mb 0.00 in0.0 mm 0.00 in0.0 mm 0.00 in0.0 mm
12:12 AM 40.6°F4.8°C 29.8°F-1.2°C 65% 10.7 mph NW17.2 kmh NW 12.5 mph20.1 kmh 29.52 in999.7 mb 0.00 in0.0 mm 0.00 in0.0 mm 0.00 in0.0 mm
12:11 AM 40.6°F4.8°C 29.8°F-1.2°C 65% 6.9 mph NW11.1 kmh NW 9.2 mph14.8 kmh 29.53 in1000.0 mb 0.00 in0.0 mm 0.00 in0.0 mm 0.00 in0.0 mm
12:10 AM 40.6°F4.8°C 29.8°F-1.2°C 65% 6.5 mph NW10.5 kmh NW 11.4 mph18.3 kmh 29.52 in999.7 mb 0.00 in0.0 mm 0.00 in0.0 mm 0.00 in0.0 mm
12:09 AM 40.5°F4.7°C 29.3°F-1.5°C 64% 8.3 mph SW13.4 kmh SW 10.3 mph16.6 kmh 29.52 in999.7 mb 0.00 in0.0 mm 0.00 in0.0 mm 0.00 in0.0 mm
12:08 AM 40.6°F4.8°C 29.4°F-1.4°C 64% 7.6 mph W12.2 kmh W 9.2 mph14.8 kmh 29.53 in1000.0 mb 0.00 in0.0 mm 0.00 in0.0 mm 0.00 in0.0 mm
12:07 AM 40.6°F4.8°C 29.4°F-1.4°C 64% 7.8 mph WNW12.6 kmh WNW 12.5 mph20.1 kmh 29.52 in999.7 mb 0.00 in0.0 mm 0.00 in0.0 mm 0.00 in0.0 mm
12:06 AM 40.6°F4.8°C 29.4°F-1.4°C 64% 5.8 mph NE9.3 kmh NE 8.1 mph13.0 kmh 29.52 in999.7 mb 0.00 in0.0 mm 0.00 in0.0 mm 0.00 in0.0 mm
12:05 AM 40.6°F4.8°C 29.4°F-1.4°C 64% 13.6 mph WNW21.9 kmh WNW 14.8 mph23.8 kmh 29.52 in999.7 mb 0.00 in0.0 mm 0.00 in0.0 mm 0.00 in0.0 mm
12:04 AM 40.6°F4.8°C 29.4°F-1.4°C 64% 6.9 mph NW11.1 kmh NW 10.3 mph16.6 kmh 29.53 in1000.0 mb 0.00 in0.0 mm 0.00 in0.0 mm 0.00 in0.0 mm
12:03 AM 40.6°F4.8°C 29.0°F-1.7°C 63% 9.4 mph WNW15.1 kmh WNW 13.6 mph21.9 kmh 29.52 in999.7 mb 0.00 in0.0 mm 0.00 in0.0 mm 0.00 in0.0 mm
12:02 AM 40.6°F4.8°C 29.4°F-1.4°C 64% 11.2 mph WNW18.0 kmh WNW 14.8 mph23.8 kmh 29.53 in1000.0 mb 0.00 in0.0 mm 0.00 in0.0 mm 0.00 in0.0 mm
12:01 AM 40.6°F4.8°C 29.4°F-1.4°C 64% 8.3 mph SE13.4 kmh SE 10.3 mph16.6 kmh 29.52 in999.7 mb 0.00 in0.0 mm 0.00 in0.0 mm 0.00 in0.0 mm
12:00 AM 40.6°F4.8°C 29.4°F-1.4°C 64% 13.9 mph N22.4 kmh N 20.6 mph33.2 kmh 29.53 in1000.0 mb 0.00 in0.0 mm 0.00 in0.0 mm 0.00 in0.0 mm